Time,TemperatureF,DewpointF,PressureIn,WindDirection,WindDirectionDegrees,WindSpeedMPH,WindSpeedGustMPH,Humidity,HourlyPrecipIn,Conditions,Clouds,dailyrainin,SoftwareType,DateUTC
2013-02-23 00:01:00,24.7,21.7,29.81,West,271,2.8,8.1,88,0.00,RA,,0.00,WeatherDisplay:10.37,2013-02-23 06:01:00,
2013-02-23 00:02:00,24.6,21.6,29.81,WNW,292,3.0,4.6,88,0.00,RA,,0.00,WeatherDisplay:10.37,2013-02-23 06:02:00,
2013-02-23 00:06:00,24.5,21.5,29.81,WSW,256,5.4,8.9,88,0.00,RA,,0.00,WeatherDisplay:10.37,2013-02-23 06:06:00,
2013-02-23 00:07:00,24.7,21.7,29.81,WSW,246,5.2,9.2,88,0.00,RA,,0.00,WeatherDisplay:10.37,2013-02-23 06:07:00,
2013-02-23 00:11:00,24.7,21.7,29.81,WSW,247,5.7,9.2,88,0.00,CLR,,0.00,WeatherDisplay:10.37,2013-02-23 06:11:00,
2013-02-23 00:12:00,24.6,21.6,29.81,WSW,256,5.2,9.2,88,0.00,CLR,,0.00,WeatherDisplay:10.37,2013-02-23 06:12:00,
2013-02-23 00:18:00,24.6,21.6,29.81,West,271,5.9,9.2,88,0.00,CLR,,0.00,WeatherDisplay:10.37,2013-02-23 06:18:00,
2013-02-23 00:19:00,24.6,21.6,29.81,WNW,282,5.9,8.1,88,0.00,CLR,,0.00,WeatherDisplay:10.37,2013-02-23 06:19:00,
2013-02-23 00:23:00,24.6,21.6,29.81,WSW,257,4.6,8.1,88,0.00,CLR,,0.00,WeatherDisplay:10.37,2013-02-23 06:23:00,
2013-02-23 00:24:00,24.6,21.6,29.81,West,260,5.3,8.1,88,0.00,CLR,,0.00,WeatherDisplay:10.37,2013-02-23 06:24:00,
2013-02-23 00:29:00,24.6,21.6,29.81,WNW,285,3.3,4.6,88,0.00,CLR,,0.00,WeatherDisplay:10.37,2013-02-23 06:29:00,
2013-02-23 00:34:00,24.5,21.2,29.81,WSW,246,4.7,8.7,87,0.00,CLR,,0.00,WeatherDisplay:10.37,2013-02-23 06:34:00,
2013-02-23 00:35:00,24.5,21.2,29.81,West,280,5.9,9.2,87,0.00,CLR,,0.00,WeatherDisplay:10.37,2013-02-23 06:35:00,
2013-02-23 00:39:00,24.4,21.1,29.81,West,277,4.6,5.8,87,0.00,CLR,,0.00,WeatherDisplay:10.37,2013-02-23 06:39:00,
2013-02-23 00:40:00,24.5,21.2,29.81,West,261,4.5,9.4,87,0.00,CLR,,0.00,WeatherDisplay:10.37,2013-02-23 06:40:00,
2013-02-23 00:44:00,24.5,21.2,29.81,WSW,254,4.1,8.1,87,0.00,CLR,,0.00,WeatherDisplay:10.37,2013-02-23 06:44:00,
2013-02-23 00:45:00,24.3,21.0,29.81,SW,229,3.7,5.8,87,0.00,CLR,,0.00,WeatherDisplay:10.37,2013-02-23 06:45:00,
2013-02-23 00:49:00,24.4,21.1,29.81,West,268,3.9,9.2,87,0.00,CLR,,0.00,WeatherDisplay:10.37,2013-02-23 06:49:00,
2013-02-23 00:50:00,24.4,21.1,29.81,West,280,4.1,5.8,87,0.00,CLR,,0.00,WeatherDisplay:10.37,2013-02-23 06:50:00,
2013-02-23 00:54:00,24.3,21.0,29.81,WNW,292,5.7,9.2,87,0.00,CLR,,0.00,WeatherDisplay:10.37,2013-02-23 06:54:00,
2013-02-23 00:55:00,24.3,21.0,29.81,SW,233,5.8,9.2,87,0.00,CLR,,0.00,WeatherDisplay:10.37,2013-02-23 06:55:00,
2013-02-23 01:00:00,24.3,21.0,29.81,WSW,258,3.4,8.1,87,0.00,CLR,,0.00,WeatherDisplay:10.37,2013-02-23 07:00:00,
2013-02-23 01:05:00,24.2,20.9,29.81,West,272,6.3,8.1,87,0.00,CLR,,0.00,WeatherDisplay:10.37,2013-02-23 07:05:00,
2013-02-23 01:10:00,24.2,20.9,29.81,West,260,4.8,8.1,87,0.00,CLR,,0.00,WeatherDisplay:10.37,2013-02-23 07:10:00,
2013-02-23 01:15:00,24.2,20.9,29.81,WNW,284,5.2,6.9,87,0.00,CLR,,0.00,WeatherDisplay:10.37,2013-02-23 07:15:00,
2013-02-23 01:20:00,24.2,20.9,29.81,West,263,6.2,8.1,87,0.00,CLR,,0.00,WeatherDisplay:10.37,2013-02-23 07:20:00,
2013-02-23 01:21:00,24.1,20.8,29.81,SW,226,6.4,9.2,87,0.00,CLR,,0.00,WeatherDisplay:10.37,2013-02-23 07:21:00,
2013-02-23 01:25:00,24.1,20.5,29.81,WNW,285,5.7,8.1,86,0.00,CLR,,0.00,WeatherDisplay:10.37,2013-02-23 07:25:00,
2013-02-23 01:26:00,24.1,20.5,29.81,WNW,282,5.7,8.1,86,0.00,CLR,,0.00,WeatherDisplay:10.37,2013-02-23 07:26:00,
2013-02-23 01:30:00,24.0,20.4,29.81,WNW,291,6.5,11.5,86,0.00,CLR,,0.00,WeatherDisplay:10.37,2013-02-23 07:30:00,
2013-02-23 01:31:00,24.0,20.4,29.81,West,261,5.8,11.5,86,0.00,CLR,,0.00,WeatherDisplay:10.37,2013-02-23 07:31:00,
2013-02-23 01:36:00,23.8,20.2,29.81,West,268,4.2,6.9,86,0.00,CLR,,0.00,WeatherDisplay:10.37,2013-02-23 07:36:00,
2013-02-23 01:41:00,23.9,20.3,29.81,West,272,7.1,11.5,86,0.00,CLR,,0.00,WeatherDisplay:10.37,2013-02-23 07:41:00,
2013-02-23 01:46:00,23.9,20.3,29.81,WSW,248,5.8,6.9,86,0.00,CLR,,0.00,WeatherDisplay:10.37,2013-02-23 07:46:00,
2013-02-23 01:47:00,23.8,20.2,29.81,West,275,5.6,10.4,86,0.00,CLR,,0.00,WeatherDisplay:10.37,2013-02-23 07:47:00,
2013-02-23 01:51:00,23.8,20.2,29.82,West,261,4.6,9.2,86,0.00,CLR,,0.00,WeatherDisplay:10.37,2013-02-23 07:51:00,
2013-02-23 01:52:00,23.8,20.2,29.81,West,275,5.2,8.1,86,0.00,CLR,,0.00,WeatherDisplay:10.37,2013-02-23 07:52:00,
2013-02-23 01:56:00,23.7,20.1,29.81,WSW,253,3.7,13.8,86,0.00,CLR,,0.00,WeatherDisplay:10.37,2013-02-23 07:56:00,
2013-02-23 01:57:00,23.7,20.1,29.81,West,270,3.2,5.8,86,0.00,CLR,,0.00,WeatherDisplay:10.37,2013-02-23 07:57:00,
2013-02-23 02:01:00,23.6,20.0,29.82,West,274,5.1,9.2,86,0.00,CLR,,0.00,WeatherDisplay:10.37,2013-02-23 08:01:00,
2013-02-23 02:02:00,23.7,20.1,29.82,WNW,282,4.9,8.1,86,0.00,CLR,,0.00,WeatherDisplay:10.37,2013-02-23 08:02:00,
2013-02-23 02:07:00,23.6,20.0,29.81,West,271,6.2,8.1,86,0.00,CLR,,0.00,WeatherDisplay:10.37,2013-02-23 08:07:00,
2013-02-23 02:12:00,23.5,20.2,29.81,West,264,5.7,8.1,87,0.00,CLR,,0.00,WeatherDisplay:10.37,2013-02-23 08:12:00,
2013-02-23 02:14:00,23.5,20.2,29.81,WNW,299,6.4,11.5,87,0.00,CLR,,0.00,WeatherDisplay:10.37,2013-02-23 08:14:00,
2013-02-23 02:17:00,23.5,20.2,29.81,West,264,7.2,10.4,87,0.00,CLR,,0.00,WeatherDisplay:10.37,2013-02-23 08:17:00,
2013-02-23 02:18:00,23.5,20.2,29.81,West,265,6.6,9.2,87,0.00,CLR,,0.00,WeatherDisplay:10.37,2013-02-23 08:18:00,
2013-02-23 02:19:00,23.4,20.1,29.81,SSW,198,5.9,9.2,87,0.00,CLR,,0.00,WeatherDisplay:10.37,2013-02-23 08:19:00,
2013-02-23 02:22:00,23.4,20.1,29.81,West,272,6.4,9.2,87,0.00,CLR,,0.00,WeatherDisplay:10.37,2013-02-23 08:22:00,
2013-02-23 02:23:00,23.4,20.1,29.81,West,264,6.2,11.5,87,0.00,CLR,,0.00,WeatherDisplay:10.37,2013-02-23 08:23:00,
2013-02-23 02:24:00,23.4,20.1,29.81,WSW,244,7.4,10.4,87,0.00,CLR,,0.00,WeatherDisplay:10.37,2013-02-23 08:24:00,
2013-02-23 02:27:00,23.4,20.1,29.81,WSW,258,5.4,11.5,87,0.00,CLR,,0.00,WeatherDisplay:10.37,2013-02-23 08:27:00,
2013-02-23 02:28:00,23.5,20.2,29.81,WSW,240,4.9,10.4,87,0.00,CLR,,0.00,WeatherDisplay:10.37,2013-02-23 08:28:00,
2013-02-23 02:29:00,23.4,20.1,29.81,West,278,3.8,6.9,87,0.00,CLR,,0.00,WeatherDisplay:10.37,2013-02-23 08:29:00,
2013-02-23 02:32:00,23.4,20.1,29.81,WSW,253,4.7,7.0,87,0.00,CLR,,0.00,WeatherDisplay:10.37,2013-02-23 08:32:00,
2013-02-23 02:33:00,23.4,20.1,29.81,WSW,239,4.3,8.1,87,0.00,CLR,,0.00,WeatherDisplay:10.37,2013-02-23 08:33:00,
2013-02-23 02:34:00,23.4,20.1,29.81,WSW,250,4.4,6.3,87,0.00,CLR,,0.00,WeatherDisplay:10.37,2013-02-23 08:34:00,
2013-02-23 02:37:00,23.4,20.1,29.81,West,267,4.4,6.9,87,0.00,CLR,,0.00,WeatherDisplay:10.37,2013-02-23 08:37:00,
2013-02-23 02:38:00,23.4,20.1,29.81,WSW,241,3.9,6.9,87,0.00,CLR,,0.00,WeatherDisplay:10.37,2013-02-23 08:38:00,
2013-02-23 02:39:00,23.4,20.1,29.81,West,267,4.3,8.8,87,0.00,CLR,,0.00,WeatherDisplay:10.37,2013-02-23 08:39:00,
2013-02-23 02:42:00,23.3,20.0,29.81,SW,227,3.1,4.6,87,0.00,CLR,,0.00,WeatherDisplay:10.37,2013-02-23 08:42:00,
2013-02-23 02:44:00,23.4,20.1,29.81,West,280,5.2,6.9,87,0.00,CLR,,0.00,WeatherDisplay:10.37,2013-02-23 08:44:00,
2013-02-23 02:45:00,23.3,20.3,29.81,WSW,253,4.1,8.1,88,0.00,CLR,,0.00,WeatherDisplay:10.37,2013-02-23 08:45:00,
2013-02-23 02:48:00,23.3,20.3,29.81,WNW,289,5.0,11.5,88,0.00,CLR,,0.00,WeatherDisplay:10.37,2013-02-23 08:48:00,
2013-02-23 02:49:00,23.3,20.3,29.81,WSW,258,5.3,6.9,88,0.00,CLR,,0.00,WeatherDisplay:10.37,2013-02-23 08:49:00,
2013-02-23 02:50:00,23.3,20.3,29.81,West,267,6.1,10.4,88,0.00,CLR,,0.00,WeatherDisplay:10.37,2013-02-23 08:50:00,
2013-02-23 02:53:00,23.3,20.3,29.81,WSW,240,5.5,9.2,88,0.00,CLR,,0.00,WeatherDisplay:10.37,2013-02-23 08:53:00,
2013-02-23 02:54:00,23.3,20.3,29.81,West,264,4.8,9.2,88,0.00,CLR,,0.00,WeatherDisplay:10.37,2013-02-23 08:54:00,
2013-02-23 02:55:00,23.2,20.2,29.81,West,281,6.7,8.1,88,0.00,CLR,,0.00,WeatherDisplay:10.37,2013-02-23 08:55:00,
2013-02-23 02:58:00,23.3,20.3,29.81,West,265,5.3,6.9,88,0.00,CLR,,0.00,WeatherDisplay:10.37,2013-02-23 08:58:00,
2013-02-23 02:59:00,23.2,20.2,29.81,WSW,254,5.5,7.0,88,0.00,CLR,,0.00,WeatherDisplay:10.37,2013-02-23 08:59:00,
2013-02-23 03:00:00,23.2,20.2,29.81,West,268,6.4,10.4,88,0.00,CLR,,0.00,WeatherDisplay:10.37,2013-02-23 09:00:00,
2013-02-23 03:03:00,23.2,20.2,29.81,SW,229,5.3,9.2,88,0.00,CLR,,0.00,WeatherDisplay:10.37,2013-02-23 09:03:00,
2013-02-23 03:04:00,23.1,20.1,29.81,West,264,5.1,6.4,88,0.00,CLR,,0.00,WeatherDisplay:10.37,2013-02-23 09:04:00,
2013-02-23 03:05:00,23.2,20.2,29.81,West,267,5.1,8.1,88,0.00,CLR,,0.00,WeatherDisplay:10.37,2013-02-23 09:05:00,
2013-02-23 03:08:00,23.2,20.2,29.81,West,261,7.3,10.2,88,0.00,CLR,,0.00,WeatherDisplay:10.37,2013-02-23 09:08:00,
2013-02-23 03:09:00,23.2,20.2,29.81,SW,236,6.8,10.4,88,0.00,CLR,,0.00,WeatherDisplay:10.37,2013-02-23 09:09:00,
2013-02-23 03:10:00,23.1,20.1,29.81,West,267,6.3,10.4,88,0.00,CLR,,0.00,WeatherDisplay:10.37,2013-02-23 09:10:00,
2013-02-23 03:11:00,23.1,20.1,29.81,West,265,5.2,9.2,88,0.00,CLR,,0.00,WeatherDisplay:10.37,2013-02-23 09:11:00,
2013-02-23 03:13:00,23.2,20.2,29.81,WSW,256,5.5,6.9,88,0.00,CLR,,0.00,WeatherDisplay:10.37,2013-02-23 09:13:00,
2013-02-23 03:15:00,23.1,20.1,29.81,West,260,5.0,9.4,88,0.00,CLR,,0.00,WeatherDisplay:10.37,2013-02-23 09:15:00,
2013-02-23 03:16:00,23.1,20.1,29.81,West,268,6.2,10.4,88,0.00,CLR,,0.00,WeatherDisplay:10.37,2013-02-23 09:16:00,
2013-02-23 03:18:00,23.1,20.1,29.81,West,260,5.9,9.2,88,0.00,CLR,,0.00,WeatherDisplay:10.37,2013-02-23 09:18:00,
2013-02-23 03:20:00,23.1,20.1,29.81,WSW,240,6.2,9.2,88,0.00,CLR,,0.00,WeatherDisplay:10.37,2013-02-23 09:20:00,
2013-02-23 03:21:00,23.0,20.0,29.81,West,281,5.5,9.2,88,0.00,CLR,,0.00,WeatherDisplay:10.37,2013-02-23 09:21:00,
2013-02-23 03:23:00,23.1,20.1,29.81,West,275,4.9,8.1,88,0.00,CLR,,0.00,WeatherDisplay:10.37,2013-02-23 09:23:00,
2013-02-23 03:25:00,23.0,20.0,29.81,West,265,6.1,7.6,88,0.00,CLR,,0.00,WeatherDisplay:10.37,2013-02-23 09:25:00,
2013-02-23 03:26:00,23.1,20.1,29.81,WSW,253,5.6,11.5,88,0.00,CLR,,0.00,WeatherDisplay:10.37,2013-02-23 09:26:00,
2013-02-23 03:28:00,23.0,20.0,29.81,WSW,253,4.7,8.1,88,0.00,CLR,,0.00,WeatherDisplay:10.37,2013-02-23 09:28:00,
2013-02-23 03:30:00,22.9,19.9,29.81,WSW,256,3.9,6.9,88,0.00,CLR,,0.00,WeatherDisplay:10.37,2013-02-23 09:30:00,
2013-02-23 03:31:00,22.9,19.9,29.81,West,260,5.2,6.9,88,0.00,CLR,,0.00,WeatherDisplay:10.37,2013-02-23 09:31:00,
2013-02-23 03:32:00,23.0,20.0,29.81,WSW,239,5.1,9.2,88,0.00,CLR,,0.00,WeatherDisplay:10.37,2013-02-23 09:32:00,
2013-02-23 03:33:00,22.9,19.9,29.81,WSW,239,3.5,8.1,88,0.00,CLR,,0.00,WeatherDisplay:10.37,2013-02-23 09:33:00,
2013-02-23 03:35:00,22.9,19.9,29.81,West,272,4.2,6.9,88,0.00,CLR,,0.00,WeatherDisplay:10.37,2013-02-23 09:35:00,
2013-02-23 03:37:00,22.9,19.9,29.81,West,280,3.0,4.6,88,0.00,CLR,,0.00,WeatherDisplay:10.37,2013-02-23 09:37:00,
2013-02-23 03:39:00,22.9,20.1,29.81,WSW,237,4.1,7.3,89,0.00,CLR,,0.00,WeatherDisplay:10.37,2013-02-23 09:39:00,
2013-02-23 03:40:00,22.8,20.0,29.81,West,264,4.3,9.2,89,0.00,CLR,,0.00,WeatherDisplay:10.37,2013-02-23 09:40:00,
2013-02-23 03:42:00,22.8,20.0,29.81,WSW,239,5.8,9.2,89,0.00,CLR,,0.00,WeatherDisplay:10.37,2013-02-23 09:42:00,
2013-02-23 03:44:00,22.9,20.1,29.81,West,281,6.0,9.2,89,0.00,CLR,,0.00,WeatherDisplay:10.37,2013-02-23 09:44:00,
2013-02-23 03:46:00,22.9,20.1,29.81,WSW,246,5.0,8.1,89,0.00,CLR,,0.00,WeatherDisplay:10.37,2013-02-23 09:46:00,
2013-02-23 03:47:00,22.8,20.0,29.81,SW,229,4.7,6.9,89,0.00,CLR,,0.00,WeatherDisplay:10.37,2013-02-23 09:47:00,
2013-02-23 03:49:00,22.8,20.0,29.81,WSW,256,6.2,11.5,89,0.00,CLR,,0.00,WeatherDisplay:10.37,2013-02-23 09:49:00,
2013-02-23 03:51:00,22.7,19.9,29.81,WSW,246,5.5,8.1,89,0.00,CLR,,0.00,WeatherDisplay:10.37,2013-02-23 09:51:00,
2013-02-23 03:52:00,22.7,19.9,29.81,SW,236,5.9,8.1,89,0.00,CLR,,0.00,WeatherDisplay:10.37,2013-02-23 09:52:00,
2013-02-23 03:55:00,22.7,19.9,29.81,WSW,240,5.2,6.9,89,0.00,CLR,,0.00,WeatherDisplay:10.37,2013-02-23 09:55:00,
2013-02-23 03:56:00,22.6,19.8,29.81,WSW,254,7.2,11.5,89,0.00,CLR,,0.00,WeatherDisplay:10.37,2013-02-23 09:56:00,
2013-02-23 03:57:00,22.7,19.9,29.81,West,270,6.7,10.4,89,0.00,CLR,,0.00,WeatherDisplay:10.37,2013-02-23 09:57:00,
2013-02-23 03:58:00,22.6,19.8,29.81,WSW,243,5.7,9.2,89,0.00,CLR,,0.00,WeatherDisplay:10.37,2013-02-23 09:58:00,
2013-02-23 04:00:00,22.6,19.8,29.81,WSW,239,6.4,8.1,89,0.00,CLR,,0.00,WeatherDisplay:10.37,2013-02-23 10:00:00,
2013-02-23 04:01:00,22.6,19.8,29.81,West,270,6.3,9.2,89,0.00,CLR,,0.00,WeatherDisplay:10.37,2013-02-23 10:01:00,
2013-02-23 04:02:00,22.7,19.9,29.81,West,274,4.2,9.2,89,0.00,CLR,,0.00,WeatherDisplay:10.37,2013-02-23 10:02:00,
2013-02-23 04:03:00,22.6,19.8,29.81,West,270,4.8,9.1,89,0.00,CLR,,0.00,WeatherDisplay:10.37,2013-02-23 10:03:00,
2013-02-23 04:05:00,22.4,19.6,29.81,WSW,250,5.1,9.2,89,0.00,CLR,,0.00,WeatherDisplay:10.37,2013-02-23 10:05:00,
2013-02-23 04:07:00,22.4,19.6,29.81,West,275,6.6,9.2,89,0.00,CLR,,0.00,WeatherDisplay:10.37,2013-02-23 10:07:00,
2013-02-23 04:08:00,22.5,19.7,29.81,West,264,5.0,8.1,89,0.00,CLR,,0.00,WeatherDisplay:10.37,2013-02-23 10:08:00,
2013-02-23 04:10:00,22.4,19.6,29.81,West,267,4.6,4.6,89,0.00,CLR,,0.00,WeatherDisplay:10.37,2013-02-23 10:10:00,
2013-02-23 04:12:00,22.4,19.6,29.81,WNW,285,4.9,8.1,89,0.00,CLR,,0.00,WeatherDisplay:10.37,2013-02-23 10:12:00,
2013-02-23 04:13:00,22.4,19.6,29.82,WSW,257,5.7,8.1,89,0.00,CLR,,0.00,WeatherDisplay:10.37,2013-02-23 10:13:00,
2013-02-23 04:16:00,22.4,19.6,29.82,WSW,258,6.4,8.5,89,0.00,CLR,,0.00,WeatherDisplay:10.37,2013-02-23 10:16:00,
2013-02-23 04:17:00,22.4,19.6,29.82,SW,216,7.3,10.3,89,0.00,CLR,,0.00,WeatherDisplay:10.37,2013-02-23 10:17:00,
2013-02-23 04:18:00,22.4,19.6,29.82,West,263,7.3,10.4,89,0.00,CLR,,0.00,WeatherDisplay:10.37,2013-02-23 10:18:00,
2013-02-23 04:21:00,22.3,19.6,29.82,SW,219,4.9,8.1,89,0.00,CLR,,0.00,WeatherDisplay:10.37,2013-02-23 10:21:00,
2013-02-23 04:22:00,22.3,19.6,29.82,West,260,5.1,8.1,89,0.00,CLR,,0.00,WeatherDisplay:10.37,2013-02-23 10:22:00,
2013-02-23 04:23:00,22.4,19.6,29.82,SW,226,5.0,9.2,89,0.00,CLR,,0.00,WeatherDisplay:10.37,2013-02-23 10:23:00,
2013-02-23 04:26:00,22.2,19.5,29.82,WNW,292,6.6,10.4,89,0.00,CLR,,0.00,WeatherDisplay:10.37,2013-02-23 10:26:00,
2013-02-23 04:27:00,22.2,19.5,29.82,West,277,6.9,11.5,89,0.00,CLR,,0.00,WeatherDisplay:10.37,2013-02-23 10:27:00,
2013-02-23 04:28:00,22.2,19.5,29.82,WSW,240,6.2,10.4,89,0.00,CLR,,0.00,WeatherDisplay:10.37,2013-02-23 10:28:00,
2013-02-23 04:32:00,22.1,19.4,29.82,West,265,5.7,6.9,89,0.00,CLR,,0.00,WeatherDisplay:10.37,2013-02-23 10:32:00,
2013-02-23 04:33:00,22.1,19.4,29.82,WSW,237,6.5,10.4,89,0.00,CLR,,0.00,WeatherDisplay:10.37,2013-02-23 10:33:00,
2013-02-23 04:37:00,22.1,19.4,29.82,West,272,6.4,8.1,89,0.00,CLR,,0.00,WeatherDisplay:10.37,2013-02-23 10:37:00,
2013-02-23 04:38:00,22.1,19.4,29.82,West,277,5.8,9.2,89,0.00,CLR,,0.00,WeatherDisplay:10.37,2013-02-23 10:38:00,
2013-02-23 04:39:00,22.1,19.4,29.82,West,271,5.1,10.4,89,0.00,CLR,,0.00,WeatherDisplay:10.37,2013-02-23 10:39:00,
2013-02-23 04:42:00,22.0,19.3,29.82,West,270,5.3,8.6,89,0.00,CLR,,0.00,WeatherDisplay:10.37,2013-02-23 10:42:00,
2013-02-23 04:43:00,22.0,19.3,29.82,WSW,258,6.5,8.1,89,0.00,CLR,,0.00,WeatherDisplay:10.37,2013-02-23 10:43:00,
2013-02-23 04:44:00,22.1,19.4,29.82,WSW,256,5.1,10.4,89,0.00,CLR,,0.00,WeatherDisplay:10.37,2013-02-23 10:44:00,
2013-02-23 04:47:00,22.0,19.3,29.82,West,268,3.9,8.1,89,0.00,CLR,,0.00,WeatherDisplay:10.37,2013-02-23 10:47:00,
2013-02-23 04:48:00,21.9,19.2,29.82,West,271,6.1,9.2,89,0.00,CLR,,0.00,WeatherDisplay:10.37,2013-02-23 10:48:00,
2013-02-23 04:49:00,21.9,19.2,29.81,West,272,5.2,9.2,89,0.00,CLR,,0.00,WeatherDisplay:10.37,2013-02-23 10:49:00,
2013-02-23 04:52:00,21.9,19.2,29.82,WSW,257,5.2,8.1,89,0.00,CLR,,0.00,WeatherDisplay:10.37,2013-02-23 10:52:00,
2013-02-23 04:53:00,22.0,19.3,29.82,West,263,5.2,8.1,89,0.00,CLR,,0.00,WeatherDisplay:10.37,2013-02-23 10:53:00,
2013-02-23 04:54:00,21.8,19.1,29.82,West,271,5.4,9.2,89,0.00,CLR,,0.00,WeatherDisplay:10.37,2013-02-23 10:54:00,
2013-02-23 04:57:00,21.9,19.2,29.82,WNW,289,5.5,8.4,89,0.00,CLR,,0.00,WeatherDisplay:10.37,2013-02-23 10:57:00,
2013-02-23 04:58:00,21.8,19.1,29.82,West,267,6.3,10.4,89,0.00,CLR,,0.00,WeatherDisplay:10.37,2013-02-23 10:58:00,
2013-02-23 04:59:00,21.9,19.2,29.82,West,271,5.7,10.4,89,0.00,CLR,,0.00,WeatherDisplay:10.37,2013-02-23 10:59:00,
2013-02-23 05:03:00,21.9,19.2,29.82,WSW,246,5.9,8.1,89,0.00,CLR,,0.00,WeatherDisplay:10.37,2013-02-23 11:03:00,
2013-02-23 05:04:00,21.8,19.1,29.82,West,280,4.4,6.9,89,0.00,CLR,,0.00,WeatherDisplay:10.37,2013-02-23 11:04:00,
2013-02-23 05:08:00,21.7,19.0,29.82,SW,232,5.9,9.2,89,0.00,CLR,,0.00,WeatherDisplay:10.37,2013-02-23 11:08:00,
2013-02-23 05:09:00,21.7,19.0,29.82,West,275,4.9,6.9,89,0.00,CLR,,0.00,WeatherDisplay:10.37,2013-02-23 11:09:00,
2013-02-23 05:13:00,21.8,19.1,29.82,SW,236,5.2,9.2,89,0.00,CLR,,0.00,WeatherDisplay:10.37,2013-02-23 11:13:00,
2013-02-23 05:14:00,21.8,19.1,29.82,WNW,295,3.9,6.9,89,0.00,CLR,,0.00,WeatherDisplay:10.37,2013-02-23 11:14:00,
2013-02-23 05:18:00,21.7,19.0,29.82,West,265,5.5,10.4,89,0.00,CLR,,0.00,WeatherDisplay:10.37,2013-02-23 11:18:00,
2013-02-23 05:19:00,21.7,19.0,29.82,SSW,210,6.0,9.2,89,0.00,CLR,,0.00,WeatherDisplay:10.37,2013-02-23 11:19:00,
2013-02-23 05:20:00,21.7,19.0,29.82,WNW,284,4.3,8.1,89,0.00,CLR,,0.00,WeatherDisplay:10.37,2013-02-23 11:20:00,
2013-02-23 05:23:00,21.7,19.0,29.82,West,277,3.4,4.6,89,0.00,CLR,,0.00,WeatherDisplay:10.37,2013-02-23 11:23:00,
2013-02-23 05:24:00,21.6,18.9,29.82,West,267,3.7,5.8,89,0.00,CLR,,0.00,WeatherDisplay:10.37,2013-02-23 11:24:00,
2013-02-23 05:25:00,21.8,19.1,29.82,WSW,246,3.8,5.6,89,0.00,CLR,,0.00,WeatherDisplay:10.37,2013-02-23 11:25:00,
2013-02-23 05:28:00,21.5,19.0,29.82,WSW,243,4.6,8.1,90,0.00,CLR,,0.00,WeatherDisplay:10.37,2013-02-23 11:28:00,
2013-02-23 05:29:00,21.7,19.2,29.82,West,268,3.7,6.9,90,0.00,CLR,,0.00,WeatherDisplay:10.37,2013-02-23 11:29:00,
2013-02-23 05:30:00,21.7,19.2,29.82,West,280,3.8,6.6,90,0.00,CLR,,0.00,WeatherDisplay:10.37,2013-02-23 11:30:00,
2013-02-23 05:33:00,21.6,19.1,29.82,West,277,5.8,9.2,90,0.00,CLR,,0.00,WeatherDisplay:10.37,2013-02-23 11:33:00,
2013-02-23 05:34:00,21.6,19.1,29.82,WSW,251,5.0,8.1,90,0.00,CLR,,0.00,WeatherDisplay:10.37,2013-02-23 11:34:00,
2013-02-23 05:35:00,21.6,19.1,29.82,West,281,5.4,8.1,90,0.00,CLR,,0.00,WeatherDisplay:10.37,2013-02-23 11:35:00,
2013-02-23 05:38:00,21.6,19.1,29.83,WSW,248,4.7,6.9,90,0.00,CLR,,0.00,WeatherDisplay:10.37,2013-02-23 11:38:00,
2013-02-23 05:39:00,21.6,19.1,29.83,WSW,240,5.0,9.2,90,0.00,CLR,,0.00,WeatherDisplay:10.37,2013-02-23 11:39:00,
2013-02-23 05:40:00,21.6,19.1,29.83,WSW,254,6.0,8.1,90,0.00,CLR,,0.00,WeatherDisplay:10.37,2013-02-23 11:40:00,
2013-02-23 05:43:00,21.5,19.0,29.83,West,263,6.4,10.3,90,0.00,CLR,,0.00,WeatherDisplay:10.37,2013-02-23 11:43:00,
2013-02-23 05:44:00,21.5,19.0,29.83,SW,224,6.7,10.4,90,0.00,CLR,,0.00,WeatherDisplay:10.37,2013-02-23 11:44:00,
2013-02-23 05:45:00,21.5,19.0,29.83,WSW,250,6.4,9.2,90,0.00,CLR,,0.00,WeatherDisplay:10.37,2013-02-23 11:45:00,
2013-02-23 05:49:00,21.5,19.0,29.83,West,274,4.1,5.8,90,0.00,CLR,,0.00,WeatherDisplay:10.37,2013-02-23 11:49:00,
2013-02-23 05:50:00,21.5,19.0,29.83,West,270,5.6,8.1,90,0.00,CLR,,0.00,WeatherDisplay:10.37,2013-02-23 11:50:00,
2013-02-23 05:54:00,21.5,19.0,29.83,SW,226,3.6,8.1,90,0.00,CLR,,0.00,WeatherDisplay:10.37,2013-02-23 11:54:00,
2013-02-23 05:55:00,21.5,19.0,29.83,WSW,240,5.1,8.1,90,0.00,CLR,,0.00,WeatherDisplay:10.37,2013-02-23 11:55:00,
2013-02-23 05:59:00,21.4,18.9,29.83,WNW,301,5.7,10.4,90,0.00,CLR,,0.00,WeatherDisplay:10.37,2013-02-23 11:59:00,
2013-02-23 06:00:00,21.3,18.8,29.83,West,275,7.4,10.4,90,0.00,CLR,,0.00,WeatherDisplay:10.37,2013-02-23 12:00:00,
2013-02-23 06:01:00,21.4,18.9,29.83,WSW,244,6.6,9.2,90,0.00,CLR,,0.00,WeatherDisplay:10.37,2013-02-23 12:01:00,
2013-02-23 06:04:00,21.4,18.9,29.83,West,272,4.9,8.1,90,0.00,CLR,,0.00,WeatherDisplay:10.37,2013-02-23 12:04:00,
2013-02-23 06:05:00,21.5,19.0,29.83,WSW,241,5.4,8.1,90,0.00,CLR,,0.00,WeatherDisplay:10.37,2013-02-23 12:05:00,
2013-02-23 06:06:00,21.4,18.9,29.83,WSW,243,5.4,9.2,90,0.00,CLR,,0.00,WeatherDisplay:10.37,2013-02-23 12:06:00,
2013-02-23 06:09:00,21.4,18.9,29.83,West,280,5.4,6.9,90,0.00,CLR,,0.00,WeatherDisplay:10.37,2013-02-23 12:09:00,
2013-02-23 06:10:00,21.4,18.9,29.83,West,275,5.4,9.2,90,0.00,CLR,,0.00,WeatherDisplay:10.37,2013-02-23 12:10:00,
2013-02-23 06:11:00,21.3,18.8,29.83,West,260,4.1,8.1,90,0.00,CLR,,0.00,WeatherDisplay:10.37,2013-02-23 12:11:00,
2013-02-23 06:14:00,21.3,18.8,29.83,WSW,253,5.8,10.4,90,0.00,CLR,,0.00,WeatherDisplay:10.37,2013-02-23 12:14:00,
2013-02-23 06:15:00,21.3,18.8,29.83,West,265,4.4,8.1,90,0.00,CLR,,0.00,WeatherDisplay:10.37,2013-02-23 12:15:00,
2013-02-23 06:16:00,21.4,18.9,29.83,West,264,8.1,9.0,90,0.00,CLR,,0.00,WeatherDisplay:10.37,2013-02-23 12:16:00,
2013-02-23 06:19:00,21.4,18.9,29.83,WSW,253,5.3,9.2,90,0.00,CLR,,0.00,WeatherDisplay:10.37,2013-02-23 12:19:00,
2013-02-23 06:20:00,21.3,18.8,29.83,West,270,4.8,8.1,90,0.00,CLR,,0.00,WeatherDisplay:10.37,2013-02-23 12:20:00,
2013-02-23 06:21:00,21.3,18.8,29.83,West,263,5.5,10.4,90,0.00,CLR,,0.00,WeatherDisplay:10.37,2013-02-23 12:21:00,
2013-02-23 06:22:00,21.3,18.8,29.83,WSW,258,5.1,10.4,90,0.00,CLR,,0.00,WeatherDisplay:10.37,2013-02-23 12:22:00,
2013-02-23 06:24:00,21.3,18.8,29.83,West,274,5.3,8.1,90,0.00,CLR,,0.00,WeatherDisplay:10.37,2013-02-23 12:24:00,
2013-02-23 06:25:00,21.2,18.7,29.83,SW,232,5.5,10.1,90,0.00,CLR,,0.00,WeatherDisplay:10.37,2013-02-23 12:25:00,
2013-02-23 06:26:00,21.2,18.7,29.83,WSW,244,4.8,8.1,90,0.00,CLR,,0.00,WeatherDisplay:10.37,2013-02-23 12:26:00,
2013-02-23 06:27:00,21.3,18.8,29.83,West,281,4.7,9.3,90,0.00,CLR,,0.00,WeatherDisplay:10.37,2013-02-23 12:27:00,
2013-02-23 06:29:00,21.2,18.7,29.83,WSW,237,6.6,12.7,90,0.00,CLR,,0.00,WeatherDisplay:10.37,2013-02-23 12:29:00,
2013-02-23 06:30:00,21.2,18.7,29.83,WSW,257,6.2,12.7,90,0.00,CLR,,0.00,WeatherDisplay:10.37,2013-02-23 12:30:00,
2013-02-23 06:31:00,21.3,18.8,29.83,WNW,284,6.2,9.2,90,0.00,CLR,,0.00,WeatherDisplay:10.37,2013-02-23 12:31:00,
2013-02-23 06:32:00,21.1,18.6,29.83,WSW,257,5.7,9.2,90,0.00,CLR,,0.00,WeatherDisplay:10.37,2013-02-23 12:32:00,
2013-02-23 06:35:00,21.2,18.7,29.83,SW,233,5.9,9.2,90,0.00,CLR,,0.00,WeatherDisplay:10.37,2013-02-23 12:35:00,
2013-02-23 06:36:00,21.3,18.8,29.83,West,265,5.1,7.4,90,0.00,CLR,,0.00,WeatherDisplay:10.37,2013-02-23 12:36:00,
2013-02-23 06:37:00,21.2,18.7,29.83,West,267,5.8,9.6,90,0.00,CLR,,0.00,WeatherDisplay:10.37,2013-02-23 12:37:00,
2013-02-23 06:40:00,21.2,18.7,29.83,West,264,3.8,5.8,90,0.00,CLR,,0.00,WeatherDisplay:10.37,2013-02-23 12:40:00,
2013-02-23 06:41:00,21.1,18.6,29.83,SW,223,4.9,7.2,90,0.00,CLR,,0.00,WeatherDisplay:10.37,2013-02-23 12:41:00,
2013-02-23 06:42:00,21.1,18.6,29.83,WNW,284,5.0,6.9,90,0.00,CLR,,0.00,WeatherDisplay:10.37,2013-02-23 12:42:00,
2013-02-23 06:45:00,21.0,18.5,29.83,West,270,4.2,10.4,90,0.00,CLR,,0.00,WeatherDisplay:10.37,2013-02-23 12:45:00,
2013-02-23 06:46:00,21.1,18.6,29.83,SW,236,4.2,5.8,90,0.00,CLR,,0.00,WeatherDisplay:10.37,2013-02-23 12:46:00,
2013-02-23 06:47:00,21.1,18.6,29.84,WSW,241,5.3,8.7,90,0.00,CLR,,0.00,WeatherDisplay:10.37,2013-02-23 12:47:00,
2013-02-23 06:50:00,21.0,18.5,29.84,SSW,206,5.8,8.1,90,0.00,CLR,,0.00,WeatherDisplay:10.37,2013-02-23 12:50:00,
2013-02-23 06:51:00,21.0,18.5,29.84,West,260,5.6,10.4,90,0.00,CLR,,0.00,WeatherDisplay:10.37,2013-02-23 12:51:00,
2013-02-23 06:52:00,21.2,18.7,29.83,SSW,202,4.3,6.9,90,0.00,CLR,,0.00,WeatherDisplay:10.37,2013-02-23 12:52:00,
2013-02-23 06:55:00,21.2,18.7,29.84,WSW,246,7.4,7.4,90,0.00,CLR,,0.00,WeatherDisplay:10.37,2013-02-23 12:55:00,
2013-02-23 06:56:00,21.1,18.6,29.84,West,272,6.5,10.4,90,0.00,CLR,,0.00,WeatherDisplay:10.37,2013-02-23 12:56:00,
2013-02-23 06:57:00,21.1,18.6,29.84,WSW,243,5.7,8.1,90,0.00,CLR,,0.00,WeatherDisplay:10.37,2013-02-23 12:57:00,
2013-02-23 07:01:00,21.2,18.7,29.84,WSW,257,4.4,8.1,90,0.00,CLR,,0.00,WeatherDisplay:10.37,2013-02-23 13:01:00,
2013-02-23 07:02:00,21.1,18.6,29.84,WSW,247,5.7,8.1,90,0.00,CLR,,0.00,WeatherDisplay:10.37,2013-02-23 13:02:00,
2013-02-23 07:06:00,21.1,18.6,29.84,WSW,254,5.3,8.1,90,0.00,CLR,,0.00,WeatherDisplay:10.37,2013-02-23 13:06:00,
2013-02-23 07:07:00,21.2,18.7,29.84,WSW,257,4.3,8.1,90,0.00,CLR,,0.00,WeatherDisplay:10.37,2013-02-23 13:07:00,
2013-02-23 07:11:00,21.2,18.7,29.84,SW,223,5.5,6.9,90,0.00,CLR,,0.00,WeatherDisplay:10.37,2013-02-23 13:11:00,
2013-02-23 07:12:00,21.1,18.6,29.84,WSW,258,4.2,10.4,90,0.00,CLR,,0.00,WeatherDisplay:10.37,2013-02-23 13:12:00,
2013-02-23 07:16:00,21.2,18.7,29.84,West,263,5.9,8.1,90,0.00,CLR,,0.00,WeatherDisplay:10.37,2013-02-23 13:16:00,
2013-02-23 07:18:00,21.2,18.7,29.84,WSW,246,4.1,8.1,90,0.00,CLR,,0.00,WeatherDisplay:10.37,2013-02-23 13:18:00,
2013-02-23 07:21:00,21.3,18.8,29.83,West,264,6.7,9.2,90,0.00,CLR,,0.00,WeatherDisplay:10.37,2013-02-23 13:21:00,
2013-02-23 07:23:00,21.2,18.7,29.84,WNW,291,7.5,11.5,90,0.00,CLR,,0.00,WeatherDisplay:10.37,2013-02-23 13:23:00,
2013-02-23 07:26:00,21.2,18.7,29.84,WSW,244,4.1,4.6,90,0.00,CLR,,0.00,WeatherDisplay:10.37,2013-02-23 13:26:00,
2013-02-23 07:28:00,21.2,18.7,29.84,WSW,254,4.8,8.1,90,0.00,CLR,,0.00,WeatherDisplay:10.37,2013-02-23 13:28:00,
2013-02-23 07:31:00,21.2,18.7,29.84,West,275,6.1,9.2,90,0.00,CLR,,0.00,WeatherDisplay:10.37,2013-02-23 13:31:00,
2013-02-23 07:33:00,21.3,18.8,29.84,West,261,6.3,9.2,90,0.00,CLR,,0.00,WeatherDisplay:10.37,2013-02-23 13:33:00,
2013-02-23 07:36:00,21.4,18.9,29.83,SSW,202,5.7,9.2,90,0.00,CLR,,0.00,WeatherDisplay:10.37,2013-02-23 13:36:00,
2013-02-23 07:37:00,21.4,18.9,29.83,West,270,5.8,9.2,90,0.00,CLR,,0.00,WeatherDisplay:10.37,2013-02-23 13:37:00,
2013-02-23 07:38:00,21.3,18.8,29.83,WSW,251,6.0,10.4,90,0.00,CLR,,0.00,WeatherDisplay:10.37,2013-02-23 13:38:00,
2013-02-23 07:42:00,21.3,18.6,29.83,West,274,5.7,11.5,89,0.00,CLR,,0.00,WeatherDisplay:10.37,2013-02-23 13:42:00,
2013-02-23 07:43:00,21.3,18.6,29.83,WSW,248,5.4,9.2,89,0.00,CLR,,0.00,WeatherDisplay:10.37,2013-02-23 13:43:00,
2013-02-23 07:47:00,21.4,18.7,29.83,SW,224,6.7,11.5,89,0.00,CLR,,0.00,WeatherDisplay:10.37,2013-02-23 13:47:00,
2013-02-23 07:48:00,21.4,18.7,29.83,WSW,258,7.5,12.7,89,0.00,CLR,,0.00,WeatherDisplay:10.37,2013-02-23 13:48:00,
2013-02-23 07:52:00,21.4,18.7,29.84,West,272,5.0,11.5,89,0.00,CLR,,0.00,WeatherDisplay:10.37,2013-02-23 13:52:00,
2013-02-23 07:53:00,21.4,18.7,29.84,West,271,4.1,6.2,89,0.00,CLR,,0.00,WeatherDisplay:10.37,2013-02-23 13:53:00,
2013-02-23 07:57:00,21.5,18.8,29.84,West,268,5.5,10.4,89,0.00,CLR,,0.00,WeatherDisplay:10.37,2013-02-23 13:57:00,
2013-02-23 07:58:00,21.5,18.8,29.84,West,278,6.2,9.2,89,0.00,CLR,,0.00,WeatherDisplay:10.37,2013-02-23 13:58:00,
2013-02-23 08:02:00,21.6,18.9,29.83,WSW,256,2.9,6.9,89,0.00,CLR,,0.00,WeatherDisplay:10.37,2013-02-23 14:02:00,
2013-02-23 08:03:00,21.7,19.0,29.84,West,277,4.1,6.3,89,0.00,CLR,,0.00,WeatherDisplay:10.37,2013-02-23 14:03:00,
2013-02-23 08:04:00,21.7,19.0,29.84,West,270,4.2,9.2,89,0.00,CLR,,0.00,WeatherDisplay:10.37,2013-02-23 14:04:00,
2013-02-23 08:07:00,21.7,19.0,29.84,NW,305,4.5,6.9,89,0.00,CLR,,0.00,WeatherDisplay:10.37,2013-02-23 14:07:00,
2013-02-23 08:08:00,21.7,19.0,29.84,West,260,3.2,6.9,89,0.00,CLR,,0.00,WeatherDisplay:10.37,2013-02-23 14:08:00,
2013-02-23 08:09:00,21.9,19.2,29.84,West,268,5.3,9.2,89,0.00,CLR,,0.00,WeatherDisplay:10.37,2013-02-23 14:09:00,
2013-02-23 08:12:00,21.9,18.9,29.84,West,271,4.1,8.1,88,0.00,CLR,,0.00,WeatherDisplay:10.37,2013-02-23 14:12:00,
2013-02-23 08:13:00,22.0,19.0,29.84,West,274,4.4,6.9,88,0.00,CLR,,0.00,WeatherDisplay:10.37,2013-02-23 14:13:00,
2013-02-23 08:14:00,21.9,18.9,29.84,West,271,5.1,8.1,88,0.00,CLR,,0.00,WeatherDisplay:10.37,2013-02-23 14:14:00,
2013-02-23 08:17:00,22.0,19.0,29.84,West,272,4.2,8.0,88,0.00,CLR,,0.00,WeatherDisplay:10.37,2013-02-23 14:17:00,
2013-02-23 08:18:00,22.1,19.1,29.84,WSW,253,7.2,9.2,88,0.00,CLR,,0.00,WeatherDisplay:10.37,2013-02-23 14:18:00,
2013-02-23 08:19:00,22.2,19.2,29.84,WSW,246,5.9,12.7,88,0.00,CLR,,0.00,WeatherDisplay:10.37,2013-02-23 14:19:00,
2013-02-23 08:20:00,22.2,19.2,29.84,WSW,256,6.0,7.3,88,0.00,CLR,,0.00,WeatherDisplay:10.37,2013-02-23 14:20:00,
2013-02-23 08:22:00,22.2,19.2,29.84,WNW,291,4.7,8.3,88,0.00,CLR,,0.00,WeatherDisplay:10.37,2013-02-23 14:22:00,
2013-02-23 08:23:00,22.2,19.2,29.84,NNW,344,4.9,9.2,88,0.00,CLR,,0.00,WeatherDisplay:10.37,2013-02-23 14:23:00,
2013-02-23 08:24:00,22.2,19.2,29.84,SW,234,5.3,5.8,88,0.00,CLR,,0.00,WeatherDisplay:10.37,2013-02-23 14:24:00,
2013-02-23 08:25:00,22.3,19.3,29.84,West,272,3.9,9.2,88,0.00,CLR,,0.00,WeatherDisplay:10.37,2013-02-23 14:25:00,
2013-02-23 08:27:00,22.3,19.3,29.84,WSW,248,6.6,10.4,88,0.00,CLR,,0.00,WeatherDisplay:10.37,2013-02-23 14:27:00,
2013-02-23 08:28:00,22.3,19.3,29.84,WSW,258,6.8,10.4,88,0.00,CLR,,0.00,WeatherDisplay:10.37,2013-02-23 14:28:00,
2013-02-23 08:29:00,22.3,19.3,29.84,West,267,7.4,11.5,88,0.00,CLR,,0.00,WeatherDisplay:10.37,2013-02-23 14:29:00,
2013-02-23 08:30:00,22.3,19.3,29.84,WSW,247,5.7,11.5,88,0.00,CLR,,0.00,WeatherDisplay:10.37,2013-02-23 14:30:00,
2013-02-23 08:32:00,22.3,19.3,29.84,WSW,257,6.3,9.2,88,0.00,CLR,,0.00,WeatherDisplay:10.37,2013-02-23 14:32:00,
2013-02-23 08:33:00,22.4,19.1,29.84,West,275,5.7,9.2,87,0.00,CLR,,0.00,WeatherDisplay:10.37,2013-02-23 14:33:00,
2013-02-23 08:34:00,22.4,19.1,29.84,NW,315,5.1,9.2,87,0.00,CLR,,0.00,WeatherDisplay:10.37,2013-02-23 14:34:00,
2013-02-23 08:35:00,22.4,19.1,29.84,West,272,5.4,8.1,87,0.00,CLR,,0.00,WeatherDisplay:10.37,2013-02-23 14:35:00,
2013-02-23 08:37:00,22.4,19.1,29.84,West,263,4.6,10.1,87,0.00,CLR,,0.00,WeatherDisplay:10.37,2013-02-23 14:37:00,
2013-02-23 08:39:00,22.5,19.2,29.84,WSW,257,5.6,10.2,87,0.00,CLR,,0.00,WeatherDisplay:10.37,2013-02-23 14:39:00,
2013-02-23 08:40:00,22.7,19.4,29.84,WSW,258,7.7,11.5,87,0.00,CLR,,0.00,WeatherDisplay:10.37,2013-02-23 14:40:00,
2013-02-23 08:42:00,22.7,19.4,29.84,SW,223,4.5,9.2,87,0.00,CLR,,0.00,WeatherDisplay:10.37,2013-02-23 14:42:00,
2013-02-23 08:44:00,22.6,19.3,29.84,WSW,251,1.6,6.9,87,0.00,CLR,,0.00,WeatherDisplay:10.37,2013-02-23 14:44:00,
2013-02-23 08:45:00,22.6,19.3,29.84,WSW,247,4.6,7.0,87,0.00,CLR,,0.00,WeatherDisplay:10.37,2013-02-23 14:45:00,
2013-02-23 08:47:00,22.7,19.4,29.84,West,274,6.7,9.2,87,0.00,CLR,,0.00,WeatherDisplay:10.37,2013-02-23 14:47:00,
2013-02-23 08:49:00,22.7,19.4,29.84,SW,223,4.6,10.4,87,0.00,CLR,,0.00,WeatherDisplay:10.37,2013-02-23 14:49:00,
2013-02-23 08:50:00,22.8,19.5,29.84,West,280,4.7,8.1,87,0.00,CLR,,0.00,WeatherDisplay:10.37,2013-02-23 14:50:00,
2013-02-23 08:52:00,22.9,19.6,29.84,WSW,241,2.3,11.5,87,0.00,CLR,,0.00,WeatherDisplay:10.37,2013-02-23 14:52:00,
2013-02-23 08:54:00,22.9,19.6,29.84,West,264,6.3,10.4,87,0.00,CLR,,0.00,WeatherDisplay:10.37,2013-02-23 14:54:00,
2013-02-23 08:55:00,22.9,19.3,29.84,West,278,7.6,10.4,86,0.00,CLR,,0.00,WeatherDisplay:10.37,2013-02-23 14:55:00,
2013-02-23 08:56:00,22.9,19.3,29.84,WNW,287,6.3,9.2,86,0.00,CLR,,0.00,WeatherDisplay:10.37,2013-02-23 14:56:00,
2013-02-23 08:57:00,23.0,19.4,29.84,West,271,3.9,6.9,86,0.00,CLR,,0.00,WeatherDisplay:10.37,2013-02-23 14:57:00,
2013-02-23 08:59:00,23.1,19.5,29.84,WNW,284,5.8,9.2,86,0.00,CLR,,0.00,WeatherDisplay:10.37,2013-02-23 14:59:00,
2013-02-23 09:00:00,23.1,19.5,29.84,WNW,295,6.0,9.2,86,0.00,CLR,,0.00,WeatherDisplay:10.37,2013-02-23 15:00:00,
2013-02-23 09:01:00,23.1,19.5,29.84,WSW,258,4.4,6.9,86,0.00,CLR,,0.00,WeatherDisplay:10.37,2013-02-23 15:01:00,
2013-02-23 09:02:00,23.3,19.7,29.84,WSW,241,3.3,6.8,86,0.00,CLR,,0.00,WeatherDisplay:10.37,2013-02-23 15:02:00,
2013-02-23 09:04:00,23.3,19.7,29.84,West,281,4.9,9.2,86,0.00,CLR,,0.00,WeatherDisplay:10.37,2013-02-23 15:04:00,
2013-02-23 09:05:00,23.3,19.7,29.84,West,267,3.2,9.2,86,0.00,CLR,,0.00,WeatherDisplay:10.37,2013-02-23 15:05:00,
2013-02-23 09:06:00,23.4,19.8,29.84,NW,304,4.1,8.6,86,0.00,CLR,,0.00,WeatherDisplay:10.37,2013-02-23 15:06:00,
2013-02-23 09:07:00,23.4,19.8,29.84,West,274,3.2,9.2,86,0.00,CLR,,0.00,WeatherDisplay:10.37,2013-02-23 15:07:00,
2013-02-23 09:09:00,23.5,19.9,29.84,WSW,257,3.4,7.0,86,0.00,CLR,,0.00,WeatherDisplay:10.37,2013-02-23 15:09:00,
2013-02-23 09:10:00,23.5,19.9,29.84,West,263,6.0,8.1,86,0.00,CLR,,0.00,WeatherDisplay:10.37,2013-02-23 15:10:00,
2013-02-23 09:11:00,23.6,20.0,29.84,West,268,5.3,9.2,86,0.00,CLR,,0.00,WeatherDisplay:10.37,2013-02-23 15:11:00,
2013-02-23 09:13:00,23.7,20.1,29.84,WNW,295,2.8,5.8,86,0.00,CLR,,0.00,WeatherDisplay:10.37,2013-02-23 15:13:00,
2013-02-23 09:14:00,23.7,20.1,29.84,West,278,4.7,6.9,86,0.00,CLR,,0.00,WeatherDisplay:10.37,2013-02-23 15:14:00,
2013-02-23 09:15:00,23.7,20.1,29.84,WSW,257,5.3,8.1,86,0.00,CLR,,0.00,WeatherDisplay:10.37,2013-02-23 15:15:00,
2013-02-23 09:16:00,23.7,19.9,29.84,WNW,292,4.5,6.9,85,0.00,CLR,,0.00,WeatherDisplay:10.37,2013-02-23 15:16:00,
2013-02-23 09:18:00,23.9,20.0,29.84,WSW,250,5.2,8.1,85,0.00,CLR,,0.00,WeatherDisplay:10.37,2013-02-23 15:18:00,
2013-02-23 09:20:00,24.0,20.1,29.84,West,272,4.0,6.9,85,0.00,CLR,,0.00,WeatherDisplay:10.37,2013-02-23 15:20:00,
2013-02-23 09:21:00,24.1,20.2,29.84,WSW,253,3.9,8.1,85,0.00,CLR,,0.00,WeatherDisplay:10.37,2013-02-23 15:21:00,
2013-02-23 09:24:00,24.1,20.2,29.84,SW,219,4.3,8.1,85,0.00,CLR,,0.00,WeatherDisplay:10.37,2013-02-23 15:24:00,
2013-02-23 09:25:00,24.1,20.0,29.84,WNW,292,4.9,6.9,84,0.00,CLR,,0.00,WeatherDisplay:10.37,2013-02-23 15:25:00,
2013-02-23 09:26:00,24.2,20.1,29.84,West,277,4.4,8.1,84,0.00,CLR,,0.00,WeatherDisplay:10.37,2013-02-23 15:26:00,
2013-02-23 09:29:00,24.3,20.2,29.84,WNW,287,6.8,10.4,84,0.00,CLR,,0.00,WeatherDisplay:10.37,2013-02-23 15:29:00,
2013-02-23 09:30:00,24.3,20.2,29.84,WSW,243,3.9,8.1,84,0.00,CLR,,0.00,WeatherDisplay:10.37,2013-02-23 15:30:00,
2013-02-23 09:31:00,24.2,20.1,29.84,West,264,4.9,7.5,84,0.00,CLR,,0.00,WeatherDisplay:10.37,2013-02-23 15:31:00,
2013-02-23 09:32:00,24.3,20.2,29.84,WSW,251,3.6,8.1,84,0.00,CLR,,0.00,WeatherDisplay:10.37,2013-02-23 15:32:00,
2013-02-23 09:34:00,24.4,20.3,29.84,WNW,287,2.0,4.6,84,0.00,CLR,,0.00,WeatherDisplay:10.37,2013-02-23 15:34:00,
2013-02-23 09:35:00,24.4,20.3,29.84,NW,325,2.8,4.6,84,0.00,CLR,,0.00,WeatherDisplay:10.37,2013-02-23 15:35:00,
2013-02-23 09:36:00,24.5,20.4,29.84,WNW,301,3.7,6.1,84,0.00,CLR,,0.00,WeatherDisplay:10.37,2013-02-23 15:36:00,
2013-02-23 09:37:00,24.6,20.5,29.84,West,274,3.3,9.2,84,0.00,CLR,,0.00,WeatherDisplay:10.37,2013-02-23 15:37:00,
2013-02-23 09:39:00,24.6,20.5,29.84,West,267,6.4,9.2,84,0.00,CLR,,0.00,WeatherDisplay:10.37,2013-02-23 15:39:00,
2013-02-23 09:40:00,24.7,20.6,29.84,WSW,246,4.0,9.2,84,0.00,CLR,,0.00,WeatherDisplay:10.37,2013-02-23 15:40:00,
2013-02-23 09:41:00,24.7,20.6,29.84,WSW,246,4.2,6.9,84,0.00,CLR,,0.00,WeatherDisplay:10.37,2013-02-23 15:41:00,
2013-02-23 09:42:00,24.7,20.3,29.84,WSW,256,3.8,9.2,83,0.00,CLR,,0.00,WeatherDisplay:10.37,2013-02-23 15:42:00,
2013-02-23 09:44:00,24.8,20.4,29.84,WSW,257,4.5,9.2,83,0.00,CLR,,0.00,WeatherDisplay:10.37,2013-02-23 15:44:00,
2013-02-23 09:45:00,24.9,20.5,29.84,NNW,336,3.6,6.9,83,0.00,CLR,,0.00,WeatherDisplay:10.37,2013-02-23 15:45:00,
2013-02-23 09:46:00,24.9,20.5,29.84,West,278,6.1,6.9,83,0.00,CLR,,0.00,WeatherDisplay:10.37,2013-02-23 15:46:00,
2013-02-23 09:47:00,24.9,20.5,29.84,West,271,4.4,9.2,83,0.00,CLR,,0.00,WeatherDisplay:10.37,2013-02-23 15:47:00,
2013-02-23 09:49:00,25.0,20.6,29.84,West,271,4.2,8.1,83,0.00,CLR,,0.00,WeatherDisplay:10.37,2013-02-23 15:49:00,
2013-02-23 09:50:00,24.9,20.5,29.84,West,277,0.2,6.9,83,0.00,CLR,,0.00,WeatherDisplay:10.37,2013-02-23 15:50:00,
2013-02-23 09:51:00,25.1,20.7,29.84,West,264,3.2,4.8,83,0.00,CLR,,0.00,WeatherDisplay:10.37,2013-02-23 15:51:00,
2013-02-23 09:52:00,25.1,20.7,29.84,West,275,4.6,5.8,83,0.00,CLR,,0.00,WeatherDisplay:10.37,2013-02-23 15:52:00,
2013-02-23 09:55:00,25.2,20.5,29.84,WSW,246,5.8,9.2,82,0.00,CLR,,0.00,WeatherDisplay:10.37,2013-02-23 15:55:00,
2013-02-23 09:56:00,25.3,20.6,29.84,West,271,6.3,7.6,82,0.00,CLR,,0.00,WeatherDisplay:10.37,2013-02-23 15:56:00,
2013-02-23 09:57:00,25.4,20.7,29.84,West,265,7.9,9.7,82,0.00,CLR,,0.00,WeatherDisplay:10.37,2013-02-23 15:57:00,
2013-02-23 10:00:00,25.4,20.7,29.84,WSW,256,7.2,11.5,82,0.00,CLR,,0.00,WeatherDisplay:10.37,2013-02-23 16:00:00,
2013-02-23 10:01:00,25.4,20.7,29.84,SW,233,6.1,9.2,82,0.00,CLR,,0.00,WeatherDisplay:10.37,2013-02-23 16:01:00,
2013-02-23 10:02:00,25.3,20.6,29.84,WNW,289,5.8,9.2,82,0.00,CLR,,0.00,WeatherDisplay:10.37,2013-02-23 16:02:00,
2013-02-23 10:05:00,25.4,20.7,29.84,West,260,6.2,11.5,82,0.00,CLR,,0.00,WeatherDisplay:10.37,2013-02-23 16:05:00,
2013-02-23 10:06:00,25.4,20.7,29.84,WSW,248,6.7,10.4,82,0.00,CLR,,0.00,WeatherDisplay:10.37,2013-02-23 16:06:00,
2013-02-23 10:07:00,25.5,20.8,29.84,WSW,257,4.4,9.2,82,0.00,CLR,,0.00,WeatherDisplay:10.37,2013-02-23 16:07:00,
2013-02-23 10:10:00,25.6,20.9,29.84,West,274,5.1,8.1,82,0.00,CLR,,0.00,WeatherDisplay:10.37,2013-02-23 16:10:00,
2013-02-23 10:12:00,25.6,20.9,29.84,West,260,4.5,5.8,82,0.00,CLR,,0.00,WeatherDisplay:10.37,2013-02-23 16:12:00,
2013-02-23 10:13:00,25.7,21.0,29.84,SW,222,4.3,6.9,82,0.00,CLR,,0.00,WeatherDisplay:10.37,2013-02-23 16:13:00,
2013-02-23 10:15:00,25.9,21.2,29.84,West,280,5.5,7.1,82,0.00,CLR,,0.00,WeatherDisplay:10.37,2013-02-23 16:15:00,
2013-02-23 10:17:00,26.0,21.3,29.84,WSW,250,4.4,7.6,82,0.00,CLR,,0.00,WeatherDisplay:10.37,2013-02-23 16:17:00,
2013-02-23 10:18:00,26.1,21.4,29.85,WSW,247,5.4,8.1,82,0.00,CLR,,0.00,WeatherDisplay:10.37,2013-02-23 16:18:00,
2013-02-23 10:20:00,26.2,21.2,29.85,West,274,6.8,9.9,81,0.00,CLR,,0.00,WeatherDisplay:10.37,2013-02-23 16:20:00,
2013-02-23 10:22:00,26.2,21.2,29.85,SW,226,5.5,7.5,81,0.00,CLR,,0.00,WeatherDisplay:10.37,2013-02-23 16:22:00,
2013-02-23 10:23:00,26.2,21.2,29.84,WSW,253,6.8,9.2,81,0.00,CLR,,0.00,WeatherDisplay:10.37,2013-02-23 16:23:00,
2013-02-23 10:25:00,26.3,21.0,29.84,WNW,288,7.5,12.7,80,0.00,CLR,,0.00,WeatherDisplay:10.37,2013-02-23 16:25:00,
2013-02-23 10:27:00,26.2,20.9,29.85,WSW,251,7.4,11.5,80,0.00,CLR,,0.00,WeatherDisplay:10.37,2013-02-23 16:27:00,
2013-02-23 10:28:00,26.2,20.9,29.85,WSW,248,7.5,11.5,80,0.00,CLR,,0.00,WeatherDisplay:10.37,2013-02-23 16:28:00,
2013-02-23 10:30:00,26.2,20.9,29.85,WNW,301,4.6,11.5,80,0.00,CLR,,0.00,WeatherDisplay:10.37,2013-02-23 16:30:00,
2013-02-23 10:31:00,26.2,20.9,29.85,West,270,7.3,12.7,80,0.00,CLR,,0.00,WeatherDisplay:10.37,2013-02-23 16:31:00,
2013-02-23 10:33:00,26.2,20.9,29.85,West,268,5.5,9.2,80,0.00,CLR,,0.00,WeatherDisplay:10.37,2013-02-23 16:33:00,
2013-02-23 10:35:00,26.3,21.0,29.85,WSW,254,5.3,8.1,80,0.00,CLR,,0.00,WeatherDisplay:10.37,2013-02-23 16:35:00,
2013-02-23 10:36:00,26.3,21.0,29.85,WNW,289,4.7,8.1,80,0.00,CLR,,0.00,WeatherDisplay:10.37,2013-02-23 16:36:00,
2013-02-23 10:38:00,26.3,21.0,29.85,WSW,251,5.4,8.1,80,0.00,CLR,,0.00,WeatherDisplay:10.37,2013-02-23 16:38:00,
2013-02-23 10:40:00,26.5,21.2,29.85,West,264,6.3,9.2,80,0.00,CLR,,0.00,WeatherDisplay:10.37,2013-02-23 16:40:00,
2013-02-23 10:41:00,26.4,21.1,29.85,WSW,240,5.0,9.2,80,0.00,CLR,,0.00,WeatherDisplay:10.37,2013-02-23 16:41:00,
2013-02-23 10:43:00,26.5,21.2,29.85,WSW,240,3.8,6.9,80,0.00,CLR,,0.00,WeatherDisplay:10.37,2013-02-23 16:43:00,
2013-02-23 10:45:00,26.7,21.4,29.85,WSW,253,4.9,6.9,80,0.00,CLR,,0.00,WeatherDisplay:10.37,2013-02-23 16:45:00,
2013-02-23 10:46:00,26.7,21.4,29.85,West,263,5.4,10.4,80,0.00,CLR,,0.00,WeatherDisplay:10.37,2013-02-23 16:46:00,
2013-02-23 10:48:00,26.8,21.5,29.85,WSW,253,4.8,9.2,80,0.00,CLR,,0.00,WeatherDisplay:10.37,2013-02-23 16:48:00,
2013-02-23 10:50:00,27.0,21.7,29.85,WSW,258,6.9,8.6,80,0.00,CLR,,0.00,WeatherDisplay:10.37,2013-02-23 16:50:00,
2013-02-23 10:51:00,26.9,21.3,29.85,West,267,7.0,10.4,79,0.00,CLR,,0.00,WeatherDisplay:10.37,2013-02-23 16:51:00,
2013-02-23 10:53:00,26.9,21.3,29.85,WSW,244,4.7,6.9,79,0.00,CLR,,0.00,WeatherDisplay:10.37,2013-02-23 16:53:00,
2013-02-23 10:55:00,27.1,21.5,29.85,SW,226,8.8,12.7,79,0.00,CLR,,0.00,WeatherDisplay:10.37,2013-02-23 16:55:00,
2013-02-23 10:57:00,27.0,21.4,29.85,WSW,246,5.8,8.9,79,0.00,CLR,,0.00,WeatherDisplay:10.37,2013-02-23 16:57:00,
2013-02-23 10:58:00,27.0,21.4,29.85,West,265,6.0,10.4,79,0.00,CLR,,0.00,WeatherDisplay:10.37,2013-02-23 16:58:00,
2013-02-23 11:00:00,27.0,21.4,29.85,WSW,243,6.2,9.2,79,0.00,CLR,,0.00,WeatherDisplay:10.37,2013-02-23 17:00:00,
2013-02-23 11:02:00,26.9,21.3,29.85,West,275,7.0,9.2,79,0.00,CLR,,0.00,WeatherDisplay:10.37,2013-02-23 17:02:00,
2013-02-23 11:03:00,26.9,21.0,29.84,West,267,5.4,10.4,78,0.00,CLR,,0.00,WeatherDisplay:10.37,2013-02-23 17:03:00,
2013-02-23 11:04:00,26.9,21.0,29.84,WSW,239,4.4,9.2,78,0.00,CLR,,0.00,WeatherDisplay:10.37,2013-02-23 17:04:00,
2013-02-23 11:05:00,26.9,21.3,29.85,West,264,5.6,10.4,79,0.00,CLR,,0.00,WeatherDisplay:10.37,2013-02-23 17:05:00,
2013-02-23 11:07:00,27.0,21.4,29.85,WSW,247,5.0,10.4,79,0.00,CLR,,0.00,WeatherDisplay:10.37,2013-02-23 17:07:00,
2013-02-23 11:08:00,27.0,21.4,29.85,WNW,296,5.7,8.1,79,0.00,CLR,,0.00,WeatherDisplay:10.37,2013-02-23 17:08:00,
2013-02-23 11:09:00,27.0,21.4,29.85,WSW,239,6.5,9.2,79,0.00,CLR,,0.00,WeatherDisplay:10.37,2013-02-23 17:09:00,
2013-02-23 11:11:00,27.0,21.1,29.85,WSW,246,6.3,12.7,78,0.00,CLR,,0.00,WeatherDisplay:10.37,2013-02-23 17:11:00,
2013-02-23 11:12:00,27.0,21.1,29.85,West,280,8.7,11.5,78,0.00,CLR,,0.00,WeatherDisplay:10.37,2013-02-23 17:12:00,
2013-02-23 11:13:00,26.9,21.0,29.85,WSW,258,5.4,9.2,78,0.00,CLR,,0.00,WeatherDisplay:10.37,2013-02-23 17:13:00,
2013-02-23 11:14:00,26.9,21.0,29.85,West,264,6.7,9.2,78,0.00,CLR,,0.00,WeatherDisplay:10.37,2013-02-23 17:14:00,
2013-02-23 11:16:00,26.8,20.9,29.85,WSW,246,5.6,11.5,78,0.00,CLR,,0.00,WeatherDisplay:10.37,2013-02-23 17:16:00,
2013-02-23 11:17:00,26.9,21.0,29.85,West,261,4.0,9.2,78,0.00,CLR,,0.00,WeatherDisplay:10.37,2013-02-23 17:17:00,
2013-02-23 11:18:00,27.0,21.4,29.85,WNW,301,5.2,11.5,79,0.00,CLR,,0.00,WeatherDisplay:10.37,2013-02-23 17:18:00,
2013-02-23 11:19:00,27.0,21.4,29.85,West,261,7.0,9.2,79,0.00,CLR,,0.00,WeatherDisplay:10.37,2013-02-23 17:19:00,
2013-02-23 11:21:00,26.9,21.0,29.85,WSW,256,8.0,11.5,78,0.00,CLR,,0.00,WeatherDisplay:10.37,2013-02-23 17:21:00,
2013-02-23 11:22:00,26.9,21.0,29.85,South,179,6.9,13.8,78,0.00,CLR,,0.00,WeatherDisplay:10.37,2013-02-23 17:22:00,
2013-02-23 11:24:00,26.9,21.0,29.85,West,277,4.7,10.4,78,0.00,CLR,,0.00,WeatherDisplay:10.37,2013-02-23 17:24:00,
2013-02-23 11:26:00,26.9,21.3,29.85,WSW,244,5.8,9.2,79,0.00,CLR,,0.00,WeatherDisplay:10.37,2013-02-23 17:26:00,
2013-02-23 11:27:00,26.9,21.3,29.85,NW,320,5.8,8.1,79,0.00,CLR,,0.00,WeatherDisplay:10.37,2013-02-23 17:27:00,
2013-02-23 11:29:00,27.0,21.1,29.85,WSW,258,7.4,10.4,78,0.00,CLR,,0.00,WeatherDisplay:10.37,2013-02-23 17:29:00,
2013-02-23 11:31:00,27.0,21.1,29.85,WNW,291,5.7,10.4,78,0.00,CLR,,0.00,WeatherDisplay:10.37,2013-02-23 17:31:00,
2013-02-23 11:32:00,27.0,21.1,29.85,WSW,248,4.8,8.1,78,0.00,CLR,,0.00,WeatherDisplay:10.37,2013-02-23 17:32:00,
2013-02-23 11:34:00,27.1,21.2,29.85,WSW,257,6.3,9.8,78,0.00,CLR,,0.00,WeatherDisplay:10.37,2013-02-23 17:34:00,
2013-02-23 11:36:00,27.1,21.2,29.85,WSW,258,5.3,9.2,78,0.00,CLR,,0.00,WeatherDisplay:10.37,2013-02-23 17:36:00,
2013-02-23 11:37:00,27.1,21.2,29.85,West,275,5.3,9.2,78,0.00,CLR,,0.00,WeatherDisplay:10.37,2013-02-23 17:37:00,
2013-02-23 11:39:00,27.3,21.3,29.85,NW,318,5.2,8.1,78,0.00,CLR,,0.00,WeatherDisplay:10.37,2013-02-23 17:39:00,
2013-02-23 11:40:00,27.3,21.3,29.85,WSW,248,4.9,6.9,78,0.00,CLR,,0.00,WeatherDisplay:10.37,2013-02-23 17:40:00,
2013-02-23 11:41:00,27.5,21.5,29.85,WSW,251,6.9,6.9,78,0.00,CLR,,0.00,WeatherDisplay:10.37,2013-02-23 17:41:00,
2013-02-23 11:42:00,27.4,21.4,29.85,West,261,5.4,9.2,78,0.00,CLR,,0.00,WeatherDisplay:10.37,2013-02-23 17:42:00,
2013-02-23 11:44:00,27.6,21.6,29.85,WSW,239,7.7,11.5,78,0.00,CLR,,0.00,WeatherDisplay:10.37,2013-02-23 17:44:00,
2013-02-23 11:45:00,27.6,21.6,29.85,SW,217,6.6,9.2,78,0.00,CLR,,0.00,WeatherDisplay:10.37,2013-02-23 17:45:00,
2013-02-23 11:46:00,27.8,21.8,29.85,WSW,247,5.4,8.1,78,0.00,CLR,,0.00,WeatherDisplay:10.37,2013-02-23 17:46:00,
2013-02-23 11:47:00,27.8,21.5,29.85,SW,233,6.4,6.9,77,0.00,CLR,,0.00,WeatherDisplay:10.37,2013-02-23 17:47:00,
2013-02-23 11:50:00,27.8,21.2,29.85,WSW,237,6.1,8.1,76,0.00,CLR,,0.00,WeatherDisplay:10.37,2013-02-23 17:50:00,
2013-02-23 11:51:00,27.9,21.3,29.85,SW,223,4.8,10.4,76,0.00,CLR,,0.00,WeatherDisplay:10.37,2013-02-23 17:51:00,
2013-02-23 11:52:00,27.9,21.3,29.85,West,265,6.0,9.2,76,0.00,CLR,,0.00,WeatherDisplay:10.37,2013-02-23 17:52:00,
2013-02-23 11:55:00,28.1,21.5,29.85,WNW,302,5.5,11.5,76,0.00,CLR,,0.00,WeatherDisplay:10.37,2013-02-23 17:55:00,
2013-02-23 11:56:00,28.1,21.5,29.85,WSW,246,6.1,9.2,76,0.00,CLR,,0.00,WeatherDisplay:10.37,2013-02-23 17:56:00,
2013-02-23 11:57:00,28.1,21.5,29.85,West,281,6.0,9.2,76,0.00,CLR,,0.00,WeatherDisplay:10.37,2013-02-23 17:57:00,
2013-02-23 12:00:00,28.2,21.6,29.85,WNW,296,5.0,6.9,76,0.00,CLR,,0.00,WeatherDisplay:10.37,2013-02-23 18:00:00,
2013-02-23 12:01:00,28.2,21.6,29.85,West,264,6.6,9.8,76,0.00,CLR,,0.00,WeatherDisplay:10.37,2013-02-23 18:01:00,
2013-02-23 12:02:00,28.2,21.3,29.85,West,271,7.9,11.5,75,0.00,CLR,,0.00,WeatherDisplay:10.37,2013-02-23 18:02:00,
2013-02-23 12:03:00,28.2,21.3,29.85,West,270,6.4,9.6,75,0.00,CLR,,0.00,WeatherDisplay:10.37,2013-02-23 18:03:00,
2013-02-23 12:06:00,28.2,21.0,29.85,West,267,8.7,11.5,74,0.00,CLR,,0.00,WeatherDisplay:10.37,2013-02-23 18:06:00,
2013-02-23 12:07:00,28.2,21.0,29.85,West,274,7.1,9.3,74,0.00,CLR,,0.00,WeatherDisplay:10.37,2013-02-23 18:07:00,
2013-02-23 12:08:00,28.3,21.4,29.85,West,260,6.7,11.5,75,0.00,CLR,,0.00,WeatherDisplay:10.37,2013-02-23 18:08:00,
2013-02-23 12:11:00,28.3,21.1,29.85,West,280,5.7,9.2,74,0.00,CLR,,0.00,WeatherDisplay:10.37,2013-02-23 18:11:00,
2013-02-23 12:12:00,28.3,21.1,29.85,WSW,251,6.1,11.1,74,0.00,CLR,,0.00,WeatherDisplay:10.37,2013-02-23 18:12:00,
2013-02-23 12:13:00,28.3,21.1,29.85,West,268,7.3,11.5,74,0.00,CLR,,0.00,WeatherDisplay:10.37,2013-02-23 18:13:00,
2013-02-23 12:16:00,28.3,21.1,29.85,West,277,5.4,9.2,74,0.00,CLR,,0.00,WeatherDisplay:10.37,2013-02-23 18:16:00,
2013-02-23 12:17:00,28.2,21.0,29.84,West,260,5.8,8.1,74,0.00,CLR,,0.00,WeatherDisplay:10.37,2013-02-23 18:17:00,
2013-02-23 12:18:00,28.2,21.0,29.85,West,268,6.1,8.3,74,0.00,CLR,,0.00,WeatherDisplay:10.37,2013-02-23 18:18:00,
2013-02-23 12:21:00,28.2,21.0,29.84,WNW,289,5.8,9.2,74,0.00,CLR,,0.00,WeatherDisplay:10.37,2013-02-23 18:21:00,
2013-02-23 12:22:00,28.3,21.1,29.84,West,264,4.7,6.2,74,0.00,CLR,,0.00,WeatherDisplay:10.37,2013-02-23 18:22:00,
2013-02-23 12:24:00,28.4,21.2,29.84,West,260,4.1,6.8,74,0.00,CLR,,0.00,WeatherDisplay:10.37,2013-02-23 18:24:00,
2013-02-23 12:26:00,28.7,21.5,29.84,WNW,285,7.4,11.5,74,0.00,CLR,,0.00,WeatherDisplay:10.37,2013-02-23 18:26:00,
2013-02-23 12:27:00,28.8,21.6,29.84,West,278,6.7,9.2,74,0.00,CLR,,0.00,WeatherDisplay:10.37,2013-02-23 18:27:00,
2013-02-23 12:29:00,29.0,21.4,29.84,WSW,253,6.1,9.2,73,0.00,CLR,,0.00,WeatherDisplay:10.37,2013-02-23 18:29:00,
2013-02-23 12:31:00,29.4,21.8,29.84,SW,220,5.7,6.3,73,0.00,CLR,,0.00,WeatherDisplay:10.37,2013-02-23 18:31:00,
2013-02-23 12:32:00,29.5,21.6,29.84,SW,233,5.3,10.4,72,0.00,CLR,,0.00,WeatherDisplay:10.37,2013-02-23 18:32:00,
2013-02-23 12:34:00,29.8,21.9,29.84,West,280,6.8,11.5,72,0.00,CLR,,0.00,WeatherDisplay:10.37,2013-02-23 18:34:00,
2013-02-23 12:36:00,29.8,21.5,29.84,WSW,250,5.9,9.2,71,0.00,CLR,,0.00,WeatherDisplay:10.37,2013-02-23 18:36:00,
2013-02-23 12:37:00,29.9,21.6,29.84,West,268,7.0,9.6,71,0.00,CLR,,0.00,WeatherDisplay:10.37,2013-02-23 18:37:00,
2013-02-23 12:39:00,30.2,22.3,29.84,West,261,4.7,8.1,72,0.00,CLR,,0.00,WeatherDisplay:10.37,2013-02-23 18:39:00,
2013-02-23 12:41:00,30.5,22.2,29.84,WSW,257,6.0,8.4,71,0.00,CLR,,0.00,WeatherDisplay:10.37,2013-02-23 18:41:00,
2013-02-23 12:42:00,30.6,22.3,29.84,WSW,253,6.1,10.1,71,0.00,CLR,,0.00,WeatherDisplay:10.37,2013-02-23 18:42:00,
2013-02-23 12:44:00,30.9,22.3,29.84,SW,230,5.9,9.2,70,0.01,RA,,0.01,WeatherDisplay:10.37,2013-02-23 18:44:00,
2013-02-23 12:47:00,31.1,22.1,29.84,WSW,237,7.9,11.5,69,0.01,RA,,0.01,WeatherDisplay:10.37,2013-02-23 18:47:00,
2013-02-23 12:50:00,31.1,22.1,29.83,WSW,256,4.9,8.1,69,0.01,RA,,0.01,WeatherDisplay:10.37,2013-02-23 18:50:00,
2013-02-23 12:52:00,31.1,22.1,29.83,West,260,4.8,9.3,69,0.01,RA,,0.01,WeatherDisplay:10.37,2013-02-23 18:52:00,
2013-02-23 12:55:00,31.1,22.1,29.83,SW,223,4.4,6.9,69,0.01,,,0.01,WeatherDisplay:10.37,2013-02-23 18:55:00,
2013-02-23 12:57:00,31.3,22.3,29.83,West,263,7.2,11.5,69,0.01,CLR,,0.01,WeatherDisplay:10.37,2013-02-23 18:57:00,
2013-02-23 13:00:00,31.5,22.1,29.83,WSW,254,5.3,9.2,68,0.01,CLR,,0.01,WeatherDisplay:10.37,2013-02-23 19:00:00,
2013-02-23 13:02:00,31.7,22.0,29.83,West,275,5.6,9.2,67,0.01,CLR,,0.01,WeatherDisplay:10.37,2013-02-23 19:02:00,
2013-02-23 13:03:00,31.7,22.0,29.83,West,280,7.2,11.5,67,0.01,CLR,,0.01,WeatherDisplay:10.37,2013-02-23 19:03:00,
2013-02-23 13:05:00,31.8,21.7,29.83,WSW,253,7.8,13.4,66,0.01,CLR,,0.01,WeatherDisplay:10.37,2013-02-23 19:05:00,
2013-02-23 13:07:00,31.6,21.2,29.83,WSW,257,8.9,13.8,65,0.01,CLR,,0.01,WeatherDisplay:10.37,2013-02-23 19:07:00,
2013-02-23 13:08:00,31.4,21.0,29.83,SW,224,9.4,13.8,65,0.01,CLR,,0.01,WeatherDisplay:10.37,2013-02-23 19:08:00,
2013-02-23 13:10:00,31.3,21.3,29.83,WSW,254,8.5,13.8,66,0.01,CLR,,0.01,WeatherDisplay:10.37,2013-02-23 19:10:00,
2013-02-23 13:12:00,31.2,21.2,29.83,SSW,208,8.6,10.4,66,0.01,CLR,,0.01,WeatherDisplay:10.37,2013-02-23 19:12:00,
2013-02-23 13:13:00,31.3,21.3,29.83,West,261,7.3,12.7,66,0.01,CLR,,0.01,WeatherDisplay:10.37,2013-02-23 19:13:00,
2013-02-23 13:14:00,31.3,21.3,29.83,SW,232,6.6,11.5,66,0.01,CLR,,0.01,WeatherDisplay:10.37,2013-02-23 19:14:00,
2013-02-23 13:15:00,31.2,21.2,29.83,West,272,7.8,10.4,66,0.01,CLR,,0.01,WeatherDisplay:10.37,2013-02-23 19:15:00,
2013-02-23 13:17:00,31.1,20.7,29.83,WSW,239,8.0,13.8,65,0.01,CLR,,0.01,WeatherDisplay:10.37,2013-02-23 19:17:00,
2013-02-23 13:18:00,31.2,21.2,29.83,WSW,254,6.4,12.7,66,0.01,CLR,,0.01,WeatherDisplay:10.37,2013-02-23 19:18:00,
2013-02-23 13:19:00,31.2,21.2,29.83,SSW,199,7.1,9.2,66,0.01,CLR,,0.01,WeatherDisplay:10.37,2013-02-23 19:19:00,
2013-02-23 13:20:00,31.1,21.1,29.83,SW,227,7.2,11.5,66,0.01,CLR,,0.01,WeatherDisplay:10.37,2013-02-23 19:20:00,
2013-02-23 13:22:00,31.1,21.4,29.83,WSW,237,5.2,9.2,67,0.01,CLR,,0.01,WeatherDisplay:10.37,2013-02-23 19:22:00,
2013-02-23 13:23:00,31.2,21.5,29.83,West,263,4.6,8.1,67,0.01,CLR,,0.01,WeatherDisplay:10.37,2013-02-23 19:23:00,
2013-02-23 13:24:00,31.1,21.8,29.83,SW,232,5.3,8.1,68,0.01,CLR,,0.01,WeatherDisplay:10.37,2013-02-23 19:24:00,
2013-02-23 13:25:00,31.1,21.8,29.83,SW,220,6.0,9.2,68,0.01,CLR,,0.01,WeatherDisplay:10.37,2013-02-23 19:25:00,
2013-02-23 13:27:00,30.9,21.6,29.83,SW,234,6.2,11.5,68,0.01,CLR,,0.01,WeatherDisplay:10.37,2013-02-23 19:27:00,
2013-02-23 13:28:00,30.9,21.6,29.83,West,264,5.6,10.4,68,0.01,CLR,,0.01,WeatherDisplay:10.37,2013-02-23 19:28:00,
2013-02-23 13:29:00,30.8,21.8,29.83,WSW,257,5.2,8.1,69,0.01,CLR,,0.01,WeatherDisplay:10.37,2013-02-23 19:29:00,
2013-02-23 13:30:00,30.6,21.6,29.83,SW,227,7.5,11.7,69,0.01,CLR,,0.01,WeatherDisplay:10.37,2013-02-23 19:30:00,
2013-02-23 13:32:00,30.4,21.8,29.83,SSW,209,8.3,12.7,70,0.01,CLR,,0.01,WeatherDisplay:10.37,2013-02-23 19:32:00,
2013-02-23 13:33:00,30.3,21.7,29.83,SSW,208,8.7,13.8,70,0.01,CLR,,0.01,WeatherDisplay:10.37,2013-02-23 19:33:00,
2013-02-23 13:34:00,30.1,21.5,29.83,WSW,251,6.2,11.5,70,0.01,CLR,,0.01,WeatherDisplay:10.37,2013-02-23 19:34:00,
2013-02-23 13:35:00,29.9,21.3,29.83,SW,229,6.9,10.4,70,0.01,CLR,,0.01,WeatherDisplay:10.37,2013-02-23 19:35:00,
2013-02-23 13:37:00,29.8,21.5,29.83,SW,230,8.3,10.4,71,0.01,CLR,,0.01,WeatherDisplay:10.37,2013-02-23 19:37:00,
2013-02-23 13:38:00,29.7,21.4,29.83,WSW,244,5.7,10.4,71,0.01,CLR,,0.01,WeatherDisplay:10.37,2013-02-23 19:38:00,
2013-02-23 13:39:00,29.6,21.3,29.83,WNW,296,6.3,8.1,71,0.01,CLR,,0.01,WeatherDisplay:10.37,2013-02-23 19:39:00,
2013-02-23 13:41:00,29.5,21.3,29.83,SSW,202,6.5,9.2,71,0.01,CLR,,0.01,WeatherDisplay:10.37,2013-02-23 19:41:00,
2013-02-23 13:42:00,29.5,21.6,29.83,SW,223,4.9,8.3,72,0.01,CLR,,0.01,WeatherDisplay:10.37,2013-02-23 19:42:00,
2013-02-23 13:43:00,29.4,21.5,29.83,SW,219,5.5,8.1,72,0.01,CLR,,0.01,WeatherDisplay:10.37,2013-02-23 19:43:00,
2013-02-23 13:44:00,29.3,21.4,29.83,West,267,6.7,8.1,72,0.00,CLR,,0.01,WeatherDisplay:10.37,2013-02-23 19:44:00,
2013-02-23 13:46:00,29.2,21.3,29.83,SW,219,5.3,11.5,72,0.00,CLR,,0.01,WeatherDisplay:10.37,2013-02-23 19:46:00,
2013-02-23 13:47:00,29.1,21.5,29.83,SW,224,6.8,8.1,73,0.00,CLR,,0.01,WeatherDisplay:10.37,2013-02-23 19:47:00,
2013-02-23 13:48:00,29.1,21.5,29.83,WSW,241,7.3,9.4,73,0.00,CLR,,0.01,WeatherDisplay:10.37,2013-02-23 19:48:00,
2013-02-23 13:49:00,29.0,21.1,29.83,WSW,241,7.3,11.5,72,0.00,CLR,,0.01,WeatherDisplay:10.37,2013-02-23 19:49:00,
2013-02-23 13:52:00,29.0,21.4,29.83,SW,230,7.3,10.4,73,0.00,CLR,,0.01,WeatherDisplay:10.37,2013-02-23 19:52:00,
2013-02-23 13:53:00,29.0,21.4,29.83,SW,236,7.3,11.5,73,0.00,CLR,,0.01,WeatherDisplay:10.37,2013-02-23 19:53:00,
2013-02-23 13:54:00,29.1,21.5,29.83,SW,233,7.1,12.7,73,0.00,CLR,,0.01,WeatherDisplay:10.37,2013-02-23 19:54:00,
2013-02-23 13:57:00,29.2,21.6,29.83,West,278,8.0,10.4,73,0.00,CLR,,0.01,WeatherDisplay:10.37,2013-02-23 19:57:00,
2013-02-23 13:58:00,29.3,21.7,29.83,SW,219,5.9,9.8,73,0.00,CLR,,0.01,WeatherDisplay:10.37,2013-02-23 19:58:00,
2013-02-23 13:59:00,29.3,21.4,29.83,WSW,254,6.9,11.5,72,0.00,CLR,,0.01,WeatherDisplay:10.37,2013-02-23 19:59:00,
2013-02-23 14:02:00,29.3,21.4,29.83,West,261,7.9,10.8,72,0.00,CLR,,0.01,WeatherDisplay:10.37,2013-02-23 20:02:00,
2013-02-23 14:03:00,29.3,21.4,29.83,SW,232,7.1,10.4,72,0.00,CLR,,0.01,WeatherDisplay:10.37,2013-02-23 20:03:00,
2013-02-23 14:04:00,29.2,21.3,29.83,SW,215,7.1,10.4,72,0.00,CLR,,0.01,WeatherDisplay:10.37,2013-02-23 20:04:00,
2013-02-23 14:07:00,29.2,21.3,29.83,WSW,254,6.9,9.2,72,0.00,CLR,,0.01,WeatherDisplay:10.37,2013-02-23 20:07:00,
2013-02-23 14:08:00,29.1,21.2,29.83,WSW,254,7.2,11.5,72,0.00,CLR,,0.01,WeatherDisplay:10.37,2013-02-23 20:08:00,
2013-02-23 14:09:00,29.0,21.1,29.83,SW,227,7.1,9.3,72,0.00,CLR,,0.01,WeatherDisplay:10.37,2013-02-23 20:09:00,
2013-02-23 14:12:00,28.9,21.0,29.83,SW,222,6.6,9.2,72,0.00,CLR,,0.01,WeatherDisplay:10.37,2013-02-23 20:12:00,
2013-02-23 14:13:00,28.8,21.2,29.83,SW,232,6.9,9.9,73,0.00,CLR,,0.01,WeatherDisplay:10.37,2013-02-23 20:13:00,
2013-02-23 14:14:00,28.7,21.1,29.83,WSW,246,8.2,11.5,73,0.00,CLR,,0.01,WeatherDisplay:10.37,2013-02-23 20:14:00,
2013-02-23 14:15:00,28.7,21.1,29.83,West,268,6.1,10.4,73,0.00,CLR,,0.01,WeatherDisplay:10.37,2013-02-23 20:15:00,
2013-02-23 14:17:00,28.5,20.9,29.83,SW,232,6.9,10.4,73,0.00,CLR,,0.01,WeatherDisplay:10.37,2013-02-23 20:17:00,
2013-02-23 14:18:00,28.5,20.9,29.83,SW,219,6.4,9.2,73,0.00,CLR,,0.01,WeatherDisplay:10.37,2013-02-23 20:18:00,
2013-02-23 14:19:00,28.4,20.8,29.83,West,272,7.1,9.2,73,0.00,CLR,,0.01,WeatherDisplay:10.37,2013-02-23 20:19:00,
2013-02-23 14:20:00,28.4,21.2,29.83,SW,220,8.0,10.6,74,0.00,CLR,,0.01,WeatherDisplay:10.37,2013-02-23 20:20:00,
2013-02-23 14:22:00,28.1,20.9,29.83,WSW,247,7.5,10.4,74,0.00,CLR,,0.01,WeatherDisplay:10.37,2013-02-23 20:22:00,
2013-02-23 14:23:00,28.2,21.0,29.83,WSW,247,6.7,11.5,74,0.00,CLR,,0.01,WeatherDisplay:10.37,2013-02-23 20:23:00,
2013-02-23 14:24:00,28.2,21.0,29.83,WSW,250,6.0,10.4,74,0.00,CLR,,0.01,WeatherDisplay:10.37,2013-02-23 20:24:00,
2013-02-23 14:25:00,28.1,20.9,29.83,SW,227,5.6,9.2,74,0.00,CLR,,0.01,WeatherDisplay:10.37,2013-02-23 20:25:00,
2013-02-23 14:27:00,28.0,20.8,29.83,West,268,5.8,9.2,74,0.00,CLR,,0.01,WeatherDisplay:10.37,2013-02-23 20:27:00,
2013-02-23 14:28:00,28.0,20.8,29.83,WSW,248,5.4,9.4,74,0.00,CLR,,0.01,WeatherDisplay:10.37,2013-02-23 20:28:00,
2013-02-23 14:29:00,27.9,20.7,29.83,WSW,244,7.9,9.2,74,0.00,CLR,,0.01,WeatherDisplay:10.37,2013-02-23 20:29:00,
2013-02-23 14:30:00,27.9,20.7,29.83,WSW,253,6.2,11.5,74,0.00,CLR,,0.01,WeatherDisplay:10.37,2013-02-23 20:30:00,
2013-02-23 14:33:00,28.0,21.1,29.83,WSW,244,5.1,6.9,75,0.00,CLR,,0.01,WeatherDisplay:10.37,2013-02-23 20:33:00,
2013-02-23 14:34:00,27.9,21.0,29.83,WSW,237,5.7,6.9,75,0.00,CLR,,0.01,WeatherDisplay:10.37,2013-02-23 20:34:00,
2013-02-23 14:35:00,28.0,21.1,29.83,West,263,6.3,9.2,75,0.00,CLR,,0.01,WeatherDisplay:10.37,2013-02-23 20:35:00,
2013-02-23 14:38:00,28.0,21.1,29.83,West,260,3.7,5.8,75,0.00,CLR,,0.01,WeatherDisplay:10.37,2013-02-23 20:38:00,
2013-02-23 14:39:00,28.0,21.1,29.83,WSW,251,5.4,8.1,75,0.00,CLR,,0.01,WeatherDisplay:10.37,2013-02-23 20:39:00,
2013-02-23 14:40:00,28.0,21.1,29.83,SW,230,6.9,9.2,75,0.00,CLR,,0.01,WeatherDisplay:10.37,2013-02-23 20:40:00,
2013-02-23 14:43:00,28.0,20.8,29.83,West,264,7.1,10.4,74,0.00,CLR,,0.01,WeatherDisplay:10.37,2013-02-23 20:43:00,
2013-02-23 14:44:00,28.0,20.8,29.83,West,267,5.1,9.2,74,0.00,CLR,,0.01,WeatherDisplay:10.37,2013-02-23 20:44:00,
2013-02-23 14:45:00,28.1,20.9,29.83,West,260,4.7,6.9,74,0.00,CLR,,0.01,WeatherDisplay:10.37,2013-02-23 20:45:00,
2013-02-23 14:48:00,28.0,20.8,29.83,West,275,6.1,9.2,74,0.00,CLR,,0.01,WeatherDisplay:10.37,2013-02-23 20:48:00,
2013-02-23 14:50:00,28.0,20.8,29.83,WSW,240,7.0,9.8,74,0.00,CLR,,0.01,WeatherDisplay:10.37,2013-02-23 20:50:00,
2013-02-23 14:54:00,28.1,20.9,29.83,WSW,248,5.9,11.5,74,0.00,CLR,,0.01,WeatherDisplay:10.37,2013-02-23 20:54:00,
2013-02-23 14:55:00,28.0,20.8,29.83,SSW,213,4.5,9.2,74,0.00,CLR,,0.01,WeatherDisplay:10.37,2013-02-23 20:55:00,
2013-02-23 14:56:00,28.0,20.8,29.83,WSW,258,4.2,6.9,74,0.00,CLR,,0.01,WeatherDisplay:10.37,2013-02-23 20:56:00,
2013-02-23 14:59:00,28.1,20.9,29.83,SW,217,6.2,8.1,74,0.00,CLR,,0.01,WeatherDisplay:10.37,2013-02-23 20:59:00,
2013-02-23 15:00:00,28.1,20.9,29.83,West,263,6.9,10.4,74,0.00,CLR,,0.01,WeatherDisplay:10.37,2013-02-23 21:00:00,
2013-02-23 15:01:00,28.1,20.9,29.83,SW,226,6.1,9.2,74,0.00,CLR,,0.01,WeatherDisplay:10.37,2013-02-23 21:01:00,
2013-02-23 15:04:00,28.1,20.9,29.83,WSW,257,7.8,11.0,74,0.00,CLR,,0.01,WeatherDisplay:10.37,2013-02-23 21:04:00,
2013-02-23 15:05:00,28.2,20.7,29.83,West,275,7.2,12.7,73,0.00,CLR,,0.01,WeatherDisplay:10.37,2013-02-23 21:05:00,
2013-02-23 15:06:00,28.2,20.7,29.83,WSW,248,5.2,9.2,73,0.00,CLR,,0.01,WeatherDisplay:10.37,2013-02-23 21:06:00,
2013-02-23 15:09:00,28.1,20.9,29.84,West,280,5.8,11.1,74,0.00,CLR,,0.01,WeatherDisplay:10.37,2013-02-23 21:09:00,
2013-02-23 15:10:00,28.1,20.9,29.84,SW,236,5.2,11.5,74,0.00,CLR,,0.01,WeatherDisplay:10.37,2013-02-23 21:10:00,
2013-02-23 15:11:00,28.0,20.8,29.84,WNW,282,4.6,6.9,74,0.00,CLR,,0.01,WeatherDisplay:10.37,2013-02-23 21:11:00,
2013-02-23 15:14:00,27.9,20.4,29.84,WSW,251,6.4,11.5,73,0.00,CLR,,0.01,WeatherDisplay:10.37,2013-02-23 21:14:00,
2013-02-23 15:15:00,27.9,20.4,29.84,West,280,6.1,8.1,73,0.00,CLR,,0.01,WeatherDisplay:10.37,2013-02-23 21:15:00,
2013-02-23 15:16:00,27.8,20.3,29.84,West,261,6.1,11.5,73,0.00,CLR,,0.01,WeatherDisplay:10.37,2013-02-23 21:16:00,
2013-02-23 15:19:00,27.8,20.3,29.84,WNW,282,5.1,10.4,73,0.00,CLR,,0.01,WeatherDisplay:10.37,2013-02-23 21:19:00,
2013-02-23 15:20:00,27.9,20.7,29.84,WNW,299,4.9,6.9,74,0.00,CLR,,0.01,WeatherDisplay:10.37,2013-02-23 21:20:00,
2013-02-23 15:21:00,27.8,20.6,29.83,West,270,6.5,8.6,74,0.00,CLR,,0.01,WeatherDisplay:10.37,2013-02-23 21:21:00,
2013-02-23 15:24:00,27.8,20.3,29.83,SW,236,4.6,8.1,73,0.00,CLR,,0.01,WeatherDisplay:10.37,2013-02-23 21:24:00,
2013-02-23 15:25:00,27.8,20.3,29.83,WNW,291,4.3,6.9,73,0.00,CLR,,0.01,WeatherDisplay:10.37,2013-02-23 21:25:00,
2013-02-23 15:26:00,27.7,20.2,29.83,NNW,335,3.9,6.9,73,0.00,CLR,,0.01,WeatherDisplay:10.37,2013-02-23 21:26:00,
2013-02-23 15:27:00,27.8,20.6,29.83,WNW,298,4.7,5.8,74,0.00,CLR,,0.01,WeatherDisplay:10.37,2013-02-23 21:27:00,
2013-02-23 15:29:00,27.7,20.5,29.84,WSW,258,4.9,8.1,74,0.00,CLR,,0.01,WeatherDisplay:10.37,2013-02-23 21:29:00,
2013-02-23 15:30:00,27.7,20.5,29.84,WNW,291,5.2,6.9,74,0.00,CLR,,0.01,WeatherDisplay:10.37,2013-02-23 21:30:00,
2013-02-23 15:31:00,27.8,20.6,29.84,West,280,3.8,8.3,74,0.00,CLR,,0.01,WeatherDisplay:10.37,2013-02-23 21:31:00,
2013-02-23 15:32:00,27.7,20.5,29.84,WNW,294,5.0,8.1,74,0.00,CLR,,0.01,WeatherDisplay:10.37,2013-02-23 21:32:00,
2013-02-23 15:34:00,27.7,20.2,29.84,West,267,4.4,8.1,73,0.00,CLR,,0.01,WeatherDisplay:10.37,2013-02-23 21:34:00,
2013-02-23 15:35:00,27.7,20.2,29.84,WNW,292,3.8,8.1,73,0.00,CLR,,0.01,WeatherDisplay:10.37,2013-02-23 21:35:00,
2013-02-23 15:36:00,27.7,20.2,29.84,West,268,2.4,6.9,73,0.00,CLR,,0.01,WeatherDisplay:10.37,2013-02-23 21:36:00,
2013-02-23 15:38:00,27.8,20.6,29.84,WSW,246,5.2,9.2,74,0.00,CLR,,0.01,WeatherDisplay:10.37,2013-02-23 21:38:00,
2013-02-23 15:39:00,27.8,20.6,29.83,SW,227,6.9,12.7,74,0.00,CLR,,0.01,WeatherDisplay:10.37,2013-02-23 21:39:00,
2013-02-23 15:40:00,27.8,20.3,29.83,WSW,246,5.9,12.7,73,0.00,CLR,,0.01,WeatherDisplay:10.37,2013-02-23 21:40:00,
2013-02-23 15:41:00,27.8,20.3,29.83,West,274,4.8,8.1,73,0.00,CLR,,0.01,WeatherDisplay:10.37,2013-02-23 21:41:00,
2013-02-23 15:43:00,27.7,20.2,29.83,WSW,258,4.1,9.2,73,0.00,CLR,,0.01,WeatherDisplay:10.37,2013-02-23 21:43:00,
2013-02-23 15:45:00,27.8,20.3,29.84,West,267,5.1,9.2,73,0.00,CLR,,0.01,WeatherDisplay:10.37,2013-02-23 21:45:00,
2013-02-23 15:46:00,27.7,20.2,29.84,West,267,6.6,8.1,73,0.00,CLR,,0.01,WeatherDisplay:10.37,2013-02-23 21:46:00,
2013-02-23 15:48:00,27.7,20.2,29.84,West,281,5.1,10.4,73,0.00,CLR,,0.01,WeatherDisplay:10.37,2013-02-23 21:48:00,
2013-02-23 15:50:00,27.7,20.2,29.84,West,270,7.7,13.8,73,0.00,CLR,,0.01,WeatherDisplay:10.37,2013-02-23 21:50:00,
2013-02-23 15:51:00,27.7,20.2,29.84,WSW,237,6.2,11.5,73,0.00,CLR,,0.01,WeatherDisplay:10.37,2013-02-23 21:51:00,
2013-02-23 15:53:00,27.6,20.1,29.84,West,277,6.5,9.2,73,0.00,CLR,,0.01,WeatherDisplay:10.37,2013-02-23 21:53:00,
2013-02-23 15:55:00,27.5,20.0,29.84,West,281,6.4,11.5,73,0.00,CLR,,0.01,WeatherDisplay:10.37,2013-02-23 21:55:00,
2013-02-23 15:57:00,27.4,19.9,29.84,WSW,258,7.4,11.5,73,0.00,CLR,,0.01,WeatherDisplay:10.37,2013-02-23 21:57:00,
2013-02-23 15:59:00,27.4,19.9,29.84,WSW,250,7.2,10.5,73,0.00,CLR,,0.01,WeatherDisplay:10.37,2013-02-23 21:59:00,
2013-02-23 16:00:00,27.3,19.8,29.84,West,278,6.2,12.7,73,0.00,CLR,,0.01,WeatherDisplay:10.37,2013-02-23 22:00:00,
2013-02-23 16:02:00,27.3,19.8,29.84,WSW,251,4.7,9.2,73,0.00,CLR,,0.01,WeatherDisplay:10.37,2013-02-23 22:02:00,
2013-02-23 16:04:00,27.3,19.8,29.84,WNW,288,5.9,9.2,73,0.00,CLR,,0.01,WeatherDisplay:10.37,2013-02-23 22:04:00,
2013-02-23 16:05:00,27.3,19.8,29.84,WNW,296,4.1,9.2,73,0.00,CLR,,0.01,WeatherDisplay:10.37,2013-02-23 22:05:00,
2013-02-23 16:07:00,27.3,19.8,29.84,WNW,302,5.4,8.1,73,0.00,CLR,,0.01,WeatherDisplay:10.37,2013-02-23 22:07:00,
2013-02-23 16:09:00,27.3,20.1,29.84,West,274,5.5,9.2,74,0.00,CLR,,0.01,WeatherDisplay:10.37,2013-02-23 22:09:00,
2013-02-23 16:10:00,27.2,20.0,29.84,WSW,240,6.2,10.4,74,0.00,CLR,,0.01,WeatherDisplay:10.37,2013-02-23 22:10:00,
2013-02-23 16:11:00,27.3,20.1,29.84,WSW,258,5.9,10.4,74,0.00,CLR,,0.01,WeatherDisplay:10.37,2013-02-23 22:11:00,
2013-02-23 16:12:00,27.2,19.7,29.84,West,263,6.6,10.4,73,0.00,CLR,,0.01,WeatherDisplay:10.37,2013-02-23 22:12:00,
2013-02-23 16:14:00,27.3,20.1,29.84,West,267,4.3,6.9,74,0.00,CLR,,0.01,WeatherDisplay:10.37,2013-02-23 22:14:00,
2013-02-23 16:16:00,27.3,20.1,29.84,WNW,288,4.5,5.8,74,0.00,CLR,,0.01,WeatherDisplay:10.37,2013-02-23 22:16:00,
2013-02-23 16:17:00,27.3,20.1,29.84,WNW,287,5.8,7.1,74,0.00,CLR,,0.01,WeatherDisplay:10.37,2013-02-23 22:17:00,
2013-02-23 16:19:00,27.3,20.1,29.85,WNW,289,2.8,5.8,74,0.00,CLR,,0.01,WeatherDisplay:10.37,2013-02-23 22:19:00,
2013-02-23 16:21:00,27.4,20.2,29.84,West,268,3.9,5.8,74,0.00,CLR,,0.01,WeatherDisplay:10.37,2013-02-23 22:21:00,
2013-02-23 16:22:00,27.3,20.1,29.84,WSW,239,2.2,4.6,74,0.00,CLR,,0.01,WeatherDisplay:10.37,2013-02-23 22:22:00,
2013-02-23 16:25:00,27.4,20.2,29.85,WSW,253,3.9,6.9,74,0.00,CLR,,0.01,WeatherDisplay:10.37,2013-02-23 22:25:00,
2013-02-23 16:26:00,27.4,20.2,29.85,WNW,299,4.8,6.9,74,0.00,CLR,,0.01,WeatherDisplay:10.37,2013-02-23 22:26:00,
2013-02-23 16:27:00,27.3,20.1,29.85,West,271,5.4,8.1,74,0.00,CLR,,0.01,WeatherDisplay:10.37,2013-02-23 22:27:00,
2013-02-23 16:30:00,27.2,20.0,29.85,WSW,248,3.9,5.8,74,0.00,CLR,,0.01,WeatherDisplay:10.37,2013-02-23 22:30:00,
2013-02-23 16:31:00,27.3,20.1,29.85,WSW,258,2.3,5.8,74,0.00,CLR,,0.01,WeatherDisplay:10.37,2013-02-23 22:31:00,
2013-02-23 16:32:00,27.2,20.0,29.85,West,275,3.8,5.4,74,0.00,CLR,,0.01,WeatherDisplay:10.37,2013-02-23 22:32:00,
2013-02-23 16:35:00,27.3,20.1,29.85,West,264,3.0,4.6,74,0.00,CLR,,0.01,WeatherDisplay:10.37,2013-02-23 22:35:00,
2013-02-23 16:36:00,27.3,20.1,29.85,WNW,285,2.1,3.5,74,0.00,CLR,,0.01,WeatherDisplay:10.37,2013-02-23 22:36:00,
2013-02-23 16:37:00,27.3,20.1,29.85,West,267,2.4,3.4,74,0.00,CLR,,0.01,WeatherDisplay:10.37,2013-02-23 22:37:00,
2013-02-23 16:40:00,27.2,20.0,29.85,West,277,3.5,5.8,74,0.00,CLR,,0.01,WeatherDisplay:10.37,2013-02-23 22:40:00,
2013-02-23 16:41:00,27.3,20.1,29.85,West,265,4.1,8.4,74,0.00,CLR,,0.01,WeatherDisplay:10.37,2013-02-23 22:41:00,
2013-02-23 16:42:00,27.3,20.1,29.85,WNW,288,5.0,8.1,74,0.00,CLR,,0.01,WeatherDisplay:10.37,2013-02-23 22:42:00,
2013-02-23 16:45:00,27.2,20.0,29.85,WNW,288,5.2,6.9,74,0.00,CLR,,0.01,WeatherDisplay:10.37,2013-02-23 22:45:00,
2013-02-23 16:46:00,27.2,20.0,29.85,WNW,291,4.8,6.9,74,0.00,CLR,,0.01,WeatherDisplay:10.37,2013-02-23 22:46:00,
2013-02-23 16:47:00,27.3,20.1,29.85,WSW,241,5.1,8.1,74,0.00,CLR,,0.01,WeatherDisplay:10.37,2013-02-23 22:47:00,
2013-02-23 16:50:00,27.2,20.0,29.85,WNW,298,6.5,11.5,74,0.00,CLR,,0.01,WeatherDisplay:10.37,2013-02-23 22:50:00,
2013-02-23 16:52:00,27.2,20.0,29.85,West,278,4.1,6.9,74,0.00,CLR,,0.01,WeatherDisplay:10.37,2013-02-23 22:52:00,
2013-02-23 16:56:00,27.1,19.9,29.85,West,263,3.9,5.8,74,0.00,CLR,,0.01,WeatherDisplay:10.37,2013-02-23 22:56:00,
2013-02-23 16:57:00,27.1,19.9,29.85,West,260,3.6,4.6,74,0.00,CLR,,0.01,WeatherDisplay:10.37,2013-02-23 22:57:00,
2013-02-23 16:58:00,27.1,19.9,29.85,WNW,288,2.5,4.6,74,0.00,CLR,,0.01,WeatherDisplay:10.37,2013-02-23 22:58:00,
2013-02-23 17:01:00,27.0,19.8,29.85,WSW,258,5.0,8.1,74,0.00,CLR,,0.01,WeatherDisplay:10.37,2013-02-23 23:01:00,
2013-02-23 17:02:00,27.0,19.8,29.85,WNW,295,4.2,8.1,74,0.00,CLR,,0.01,WeatherDisplay:10.37,2013-02-23 23:02:00,
2013-02-23 17:03:00,26.9,19.7,29.85,WNW,284,4.4,5.8,74,0.00,CLR,,0.01,WeatherDisplay:10.37,2013-02-23 23:03:00,
2013-02-23 17:07:00,26.8,19.6,29.85,WSW,246,3.7,7.5,74,0.00,CLR,,0.01,WeatherDisplay:10.37,2013-02-23 23:07:00,
2013-02-23 17:08:00,26.9,19.7,29.85,West,260,3.4,6.9,74,0.00,CLR,,0.01,WeatherDisplay:10.37,2013-02-23 23:08:00,
2013-02-23 17:12:00,26.7,19.5,29.85,NW,304,2.2,3.6,74,0.00,CLR,,0.01,WeatherDisplay:10.37,2013-02-23 23:12:00,
2013-02-23 17:13:00,26.8,19.6,29.85,WNW,289,1.9,4.6,74,0.00,CLR,,0.01,WeatherDisplay:10.37,2013-02-23 23:13:00,
2013-02-23 17:17:00,26.7,19.5,29.85,West,265,4.3,6.9,74,0.00,CLR,,0.01,WeatherDisplay:10.37,2013-02-23 23:17:00,
2013-02-23 17:18:00,26.7,19.8,29.85,WNW,299,3.3,4.6,75,0.00,CLR,,0.01,WeatherDisplay:10.37,2013-02-23 23:18:00,
2013-02-23 17:22:00,26.6,19.7,29.85,WNW,294,2.8,4.6,75,0.00,CLR,,0.01,WeatherDisplay:10.37,2013-02-23 23:22:00,
2013-02-23 17:23:00,26.6,19.7,29.85,West,278,4.0,4.6,75,0.00,CLR,,0.01,WeatherDisplay:10.37,2013-02-23 23:23:00,
2013-02-23 17:27:00,26.5,19.6,29.85,WNW,285,3.2,5.8,75,0.00,CLR,,0.01,WeatherDisplay:10.37,2013-02-23 23:27:00,
2013-02-23 17:28:00,26.5,19.6,29.85,West,261,2.6,5.8,75,0.00,CLR,,0.01,WeatherDisplay:10.37,2013-02-23 23:28:00,
2013-02-23 17:32:00,26.4,19.5,29.85,WNW,284,3.1,4.6,75,0.00,CLR,,0.01,WeatherDisplay:10.37,2013-02-23 23:32:00,
2013-02-23 17:33:00,26.4,19.5,29.85,WSW,254,2.5,4.6,75,0.00,CLR,,0.01,WeatherDisplay:10.37,2013-02-23 23:33:00,
2013-02-23 17:34:00,26.4,19.5,29.85,West,270,2.5,3.5,75,0.00,CLR,,0.01,WeatherDisplay:10.37,2013-02-23 23:34:00,
2013-02-23 17:37:00,26.3,19.8,29.85,West,272,3.2,5.8,76,0.00,CLR,,0.01,WeatherDisplay:10.37,2013-02-23 23:37:00,
2013-02-23 17:38:00,26.3,19.8,29.85,WSW,258,3.0,4.6,76,0.00,CLR,,0.01,WeatherDisplay:10.37,2013-02-23 23:38:00,
2013-02-23 17:39:00,26.2,19.7,29.85,WSW,248,2.3,3.5,76,0.00,CLR,,0.01,WeatherDisplay:10.37,2013-02-23 23:39:00,
2013-02-23 17:43:00,26.2,19.7,29.85,WSW,246,3.1,5.8,76,0.00,CLR,,0.01,WeatherDisplay:10.37,2013-02-23 23:43:00,
2013-02-23 17:44:00,26.2,19.7,29.85,West,278,2.6,4.6,76,0.00,CLR,,0.01,WeatherDisplay:10.37,2013-02-23 23:44:00,
2013-02-23 17:48:00,26.2,19.7,29.85,SW,227,3.1,5.8,76,0.00,CLR,,0.01,WeatherDisplay:10.37,2013-02-23 23:48:00,
2013-02-23 17:49:00,26.1,19.6,29.86,WNW,284,2.3,4.6,76,0.00,CLR,,0.01,WeatherDisplay:10.37,2013-02-23 23:49:00,
2013-02-23 17:53:00,26.1,19.6,29.86,WSW,258,3.1,4.6,76,0.00,CLR,,0.01,WeatherDisplay:10.37,2013-02-23 23:53:00,
2013-02-23 17:54:00,26.0,19.5,29.86,SW,233,2.1,4.0,76,0.00,CLR,,0.01,WeatherDisplay:10.37,2013-02-23 23:54:00,
2013-02-23 17:58:00,26.0,19.8,29.86,SW,226,2.8,5.8,77,0.00,CLR,,0.01,WeatherDisplay:10.37,2013-02-23 23:58:00,
2013-02-23 17:59:00,25.9,19.7,29.86,WSW,237,3.5,4.6,77,0.00,CLR,,0.01,WeatherDisplay:10.37,2013-02-23 23:59:00,
2013-02-23 18:03:00,25.7,19.5,29.86,WSW,237,3.5,4.8,77,0.00,CLR,,0.01,WeatherDisplay:10.37,2013-02-24 00:03:00,
2013-02-23 18:04:00,25.8,19.6,29.86,SW,224,4.2,6.9,77,0.00,CLR,,0.01,WeatherDisplay:10.37,2013-02-24 00:04:00,
2013-02-23 18:08:00,25.6,19.7,29.87,WSW,257,3.5,5.8,78,0.00,CLR,,0.01,WeatherDisplay:10.37,2013-02-24 00:08:00,
2013-02-23 18:09:00,25.6,19.7,29.87,SW,234,3.6,5.8,78,0.00,CLR,,0.01,WeatherDisplay:10.37,2013-02-24 00:09:00,
2013-02-23 18:13:00,25.4,19.5,29.87,WSW,239,3.3,5.8,78,0.00,CLR,,0.01,WeatherDisplay:10.37,2013-02-24 00:13:00,
2013-02-23 18:14:00,25.4,19.5,29.87,West,260,3.3,4.6,78,0.00,CLR,,0.01,WeatherDisplay:10.37,2013-02-24 00:14:00,
2013-02-23 18:18:00,25.3,19.7,29.87,SW,219,3.9,6.9,79,0.00,CLR,,0.01,WeatherDisplay:10.37,2013-02-24 00:18:00,
2013-02-23 18:19:00,25.3,19.7,29.87,SW,234,3.3,4.6,79,0.00,CLR,,0.01,WeatherDisplay:10.37,2013-02-24 00:19:00,
2013-02-23 18:23:00,25.2,19.6,29.88,SW,220,3.6,5.8,79,0.00,CLR,,0.01,WeatherDisplay:10.37,2013-02-24 00:23:00,
2013-02-23 18:24:00,25.2,19.6,29.87,WSW,241,2.4,4.6,79,0.00,CLR,,0.01,WeatherDisplay:10.37,2013-02-24 00:24:00,
2013-02-23 18:25:00,25.1,19.5,29.88,SW,236,2.7,4.6,79,0.00,CLR,,0.01,WeatherDisplay:10.37,2013-02-24 00:25:00,
2013-02-23 18:28:00,25.1,19.5,29.87,West,264,1.8,5.8,79,0.00,CLR,,0.01,WeatherDisplay:10.37,2013-02-24 00:28:00,
2013-02-23 18:29:00,25.1,19.8,29.87,WSW,237,3.2,3.9,80,0.00,CLR,,0.01,WeatherDisplay:10.37,2013-02-24 00:29:00,
2013-02-23 18:30:00,25.1,19.8,29.87,SW,219,3.7,5.8,80,0.00,CLR,,0.01,WeatherDisplay:10.37,2013-02-24 00:30:00,
2013-02-23 18:33:00,25.0,19.7,29.87,West,277,4.2,5.8,80,0.00,CLR,,0.01,WeatherDisplay:10.37,2013-02-24 00:33:00,
2013-02-23 18:34:00,25.0,19.7,29.87,SW,217,3.8,6.9,80,0.00,CLR,,0.01,WeatherDisplay:10.37,2013-02-24 00:34:00,
2013-02-23 18:35:00,25.0,19.7,29.87,SW,226,3.7,4.6,80,0.00,CLR,,0.01,WeatherDisplay:10.37,2013-02-24 00:35:00,
2013-02-23 18:38:00,24.9,19.6,29.88,WNW,287,2.3,5.8,80,0.00,CLR,,0.01,WeatherDisplay:10.37,2013-02-24 00:38:00,
2013-02-23 18:39:00,24.9,19.6,29.88,SW,227,2.0,3.7,80,0.00,CLR,,0.01,WeatherDisplay:10.37,2013-02-24 00:39:00,
2013-02-23 18:40:00,25.0,19.7,29.88,WSW,239,2.6,3.5,80,0.00,CLR,,0.01,WeatherDisplay:10.37,2013-02-24 00:40:00,
2013-02-23 18:43:00,24.9,19.6,29.88,SW,230,3.4,5.8,80,0.00,CLR,,0.01,WeatherDisplay:10.37,2013-02-24 00:43:00,
2013-02-23 18:44:00,24.9,19.6,29.88,SW,236,2.6,5.8,80,0.00,CLR,,0.01,WeatherDisplay:10.37,2013-02-24 00:44:00,
2013-02-23 18:45:00,24.9,19.6,29.88,West,270,3.6,5.8,80,0.00,CLR,,0.01,WeatherDisplay:10.37,2013-02-24 00:45:00,
2013-02-23 18:48:00,24.9,19.6,29.88,SW,234,3.6,4.6,80,0.00,CLR,,0.01,WeatherDisplay:10.37,2013-02-24 00:48:00,
2013-02-23 18:49:00,24.8,19.5,29.88,West,275,3.5,5.8,80,0.00,CLR,,0.01,WeatherDisplay:10.37,2013-02-24 00:49:00,
2013-02-23 18:50:00,24.8,19.5,29.88,SE,141,3.5,5.8,80,0.00,CLR,,0.01,WeatherDisplay:10.37,2013-02-24 00:50:00,
2013-02-23 18:54:00,24.7,19.4,29.88,SW,233,1.6,4.9,80,0.00,CLR,,0.01,WeatherDisplay:10.37,2013-02-24 00:54:00,
2013-02-23 18:55:00,24.7,19.7,29.88,WSW,237,3.0,5.8,81,0.00,CLR,,0.01,WeatherDisplay:10.37,2013-02-24 00:55:00,
2013-02-23 18:59:00,24.6,19.6,29.88,SSW,212,4.2,6.3,81,0.00,CLR,,0.01,WeatherDisplay:10.37,2013-02-24 00:59:00,
2013-02-23 19:00:00,24.7,19.7,29.88,WSW,240,4.3,5.8,81,0.00,CLR,,0.01,WeatherDisplay:10.37,2013-02-24 01:00:00,
2013-02-23 19:04:00,24.6,19.6,29.88,WSW,257,3.3,5.8,81,0.00,CLR,,0.01,WeatherDisplay:10.37,2013-02-24 01:04:00,
2013-02-23 19:05:00,24.6,19.6,29.88,WSW,251,2.3,4.6,81,0.00,CLR,,0.01,WeatherDisplay:10.37,2013-02-24 01:05:00,
2013-02-23 19:06:00,24.6,19.6,29.88,WSW,246,1.5,2.3,81,0.00,CLR,,0.01,WeatherDisplay:10.37,2013-02-24 01:06:00,
2013-02-23 19:09:00,24.6,19.6,29.89,SSW,213,3.1,5.8,81,0.00,CLR,,0.01,WeatherDisplay:10.37,2013-02-24 01:09:00,
2013-02-23 19:10:00,24.5,19.5,29.89,WSW,239,4.2,6.9,81,0.00,CLR,,0.01,WeatherDisplay:10.37,2013-02-24 01:10:00,
2013-02-23 19:11:00,24.5,19.5,29.89,SW,236,3.0,5.8,81,0.00,CLR,,0.01,WeatherDisplay:10.37,2013-02-24 01:11:00,
2013-02-23 19:14:00,24.4,19.4,29.89,WSW,246,3.7,4.6,81,0.00,CLR,,0.01,WeatherDisplay:10.37,2013-02-24 01:14:00,
2013-02-23 19:15:00,24.4,19.4,29.89,West,281,3.4,4.6,81,0.00,CLR,,0.01,WeatherDisplay:10.37,2013-02-24 01:15:00,
2013-02-23 19:16:00,24.4,19.4,29.89,WSW,240,3.4,6.7,81,0.00,CLR,,0.01,WeatherDisplay:10.37,2013-02-24 01:16:00,
2013-02-23 19:19:00,24.3,19.3,29.88,WSW,257,4.8,5.8,81,0.00,CLR,,0.01,WeatherDisplay:10.37,2013-02-24 01:19:00,
2013-02-23 19:20:00,24.3,19.6,29.88,SW,226,4.7,5.8,82,0.00,CLR,,0.01,WeatherDisplay:10.37,2013-02-24 01:20:00,
2013-02-23 19:21:00,24.3,19.6,29.88,WSW,246,4.1,5.8,82,0.00,CLR,,0.01,WeatherDisplay:10.37,2013-02-24 01:21:00,
2013-02-23 19:24:00,24.3,19.6,29.88,WSW,250,4.6,6.9,82,0.00,CLR,,0.01,WeatherDisplay:10.37,2013-02-24 01:24:00,
2013-02-23 19:25:00,24.3,19.6,29.88,SW,233,4.3,6.9,82,0.00,CLR,,0.01,WeatherDisplay:10.37,2013-02-24 01:25:00,
2013-02-23 19:26:00,24.2,19.5,29.88,WSW,244,3.9,8.1,82,0.00,CLR,,0.01,WeatherDisplay:10.37,2013-02-24 01:26:00,
2013-02-23 19:30:00,24.2,19.5,29.88,WSW,256,4.8,6.9,82,0.00,CLR,,0.01,WeatherDisplay:10.37,2013-02-24 01:30:00,
2013-02-23 19:32:00,24.2,19.5,29.88,West,264,4.2,6.9,82,0.00,CLR,,0.01,WeatherDisplay:10.37,2013-02-24 01:32:00,
2013-02-23 19:35:00,24.1,19.4,29.88,WSW,247,5.7,8.1,82,0.00,CLR,,0.01,WeatherDisplay:10.37,2013-02-24 01:35:00,
2013-02-23 19:37:00,24.1,19.4,29.88,SW,232,4.8,6.9,82,0.00,CLR,,0.01,WeatherDisplay:10.37,2013-02-24 01:37:00,
2013-02-23 19:40:00,24.0,19.3,29.88,SW,229,5.6,8.1,82,0.00,CLR,,0.01,WeatherDisplay:10.37,2013-02-24 01:40:00,
2013-02-23 19:42:00,24.0,19.3,29.88,West,264,4.9,6.9,82,0.00,CLR,,0.01,WeatherDisplay:10.37,2013-02-24 01:42:00,
2013-02-23 19:45:00,23.9,19.2,29.88,SW,223,4.3,7.2,82,0.00,CLR,,0.01,WeatherDisplay:10.37,2013-02-24 01:45:00,
2013-02-23 19:46:00,24.0,19.3,29.88,SW,224,5.1,8.1,82,0.00,CLR,,0.01,WeatherDisplay:10.37,2013-02-24 01:46:00,
2013-02-23 19:47:00,23.9,19.2,29.88,WSW,253,5.5,8.1,82,0.00,CLR,,0.01,WeatherDisplay:10.37,2013-02-24 01:47:00,
2013-02-23 19:50:00,23.9,19.2,29.88,WSW,250,5.3,6.9,82,0.00,CLR,,0.01,WeatherDisplay:10.37,2013-02-24 01:50:00,
2013-02-23 19:51:00,23.8,19.1,29.88,WSW,258,5.4,8.1,82,0.00,CLR,,0.01,WeatherDisplay:10.37,2013-02-24 01:51:00,
2013-02-23 19:52:00,23.8,19.1,29.88,WNW,289,3.9,6.9,82,0.00,CLR,,0.01,WeatherDisplay:10.37,2013-02-24 01:52:00,
2013-02-23 19:55:00,23.8,19.1,29.88,WSW,258,5.1,6.9,82,0.00,CLR,,0.01,WeatherDisplay:10.37,2013-02-24 01:55:00,
2013-02-23 19:56:00,23.7,19.0,29.88,WSW,248,5.0,6.9,82,0.00,CLR,,0.01,WeatherDisplay:10.37,2013-02-24 01:56:00,
2013-02-23 19:57:00,23.8,19.1,29.89,SW,226,4.5,6.9,82,0.00,CLR,,0.01,WeatherDisplay:10.37,2013-02-24 01:57:00,
2013-02-23 20:00:00,23.6,18.9,29.88,WSW,241,5.2,5.8,82,0.00,CLR,,0.01,WeatherDisplay:10.37,2013-02-24 02:00:00,
2013-02-23 20:01:00,23.6,18.9,29.88,SW,224,4.4,6.9,82,0.00,CLR,,0.01,WeatherDisplay:10.37,2013-02-24 02:01:00,
2013-02-23 20:02:00,23.6,18.9,29.89,WSW,253,3.9,6.1,82,0.00,CLR,,0.01,WeatherDisplay:10.37,2013-02-24 02:02:00,
2013-02-23 20:05:00,23.6,18.9,29.89,SW,216,5.4,8.0,82,0.00,CLR,,0.01,WeatherDisplay:10.37,2013-02-24 02:05:00,
2013-02-23 20:06:00,23.5,18.8,29.89,WSW,251,5.8,8.1,82,0.00,CLR,,0.01,WeatherDisplay:10.37,2013-02-24 02:06:00,
2013-02-23 20:07:00,23.5,18.8,29.89,SW,220,4.7,8.1,82,0.00,CLR,,0.01,WeatherDisplay:10.37,2013-02-24 02:07:00,
2013-02-23 20:10:00,23.4,18.7,29.89,WSW,251,4.7,6.9,82,0.00,CLR,,0.01,WeatherDisplay:10.37,2013-02-24 02:10:00,
2013-02-23 20:11:00,23.5,18.8,29.89,WSW,240,4.5,6.9,82,0.00,CLR,,0.01,WeatherDisplay:10.37,2013-02-24 02:11:00,
2013-02-23 20:13:00,23.5,18.8,29.89,SW,227,3.9,5.8,82,0.00,CLR,,0.01,WeatherDisplay:10.37,2013-02-24 02:13:00,
2013-02-23 20:15:00,23.4,18.7,29.89,WSW,240,3.4,4.6,82,0.00,CLR,,0.01,WeatherDisplay:10.37,2013-02-24 02:15:00,
2013-02-23 20:16:00,23.3,18.6,29.89,West,270,3.2,4.6,82,0.00,CLR,,0.01,WeatherDisplay:10.37,2013-02-24 02:16:00,
2013-02-23 20:18:00,23.4,18.7,29.89,WSW,253,4.5,8.1,82,0.00,CLR,,0.01,WeatherDisplay:10.37,2013-02-24 02:18:00,
2013-02-23 20:21:00,23.3,18.6,29.89,West,271,4.2,6.9,82,0.00,CLR,,0.01,WeatherDisplay:10.37,2013-02-24 02:21:00,
2013-02-23 20:23:00,23.4,18.7,29.89,West,261,3.5,5.8,82,0.00,CLR,,0.01,WeatherDisplay:10.37,2013-02-24 02:23:00,
2013-02-23 20:26:00,23.3,18.6,29.89,West,261,4.1,7.7,82,0.00,CLR,,0.01,WeatherDisplay:10.37,2013-02-24 02:26:00,
2013-02-23 20:27:00,23.3,18.6,29.89,SW,230,4.8,8.1,82,0.00,CLR,,0.01,WeatherDisplay:10.37,2013-02-24 02:27:00,
2013-02-23 20:28:00,23.3,18.6,29.89,WSW,246,3.5,6.9,82,0.00,CLR,,0.01,WeatherDisplay:10.37,2013-02-24 02:28:00,
2013-02-23 20:31:00,23.3,18.6,29.89,WSW,247,4.8,6.9,82,0.00,CLR,,0.01,WeatherDisplay:10.37,2013-02-24 02:31:00,
2013-02-23 20:32:00,23.3,18.6,29.89,SW,229,4.5,8.1,82,0.00,CLR,,0.01,WeatherDisplay:10.37,2013-02-24 02:32:00,
2013-02-23 20:33:00,23.3,18.6,29.89,WSW,241,3.3,6.9,82,0.00,CLR,,0.01,WeatherDisplay:10.37,2013-02-24 02:33:00,
2013-02-23 20:36:00,23.4,18.7,29.89,SSW,206,2.5,5.3,82,0.00,CLR,,0.01,WeatherDisplay:10.37,2013-02-24 02:36:00,
2013-02-23 20:37:00,23.3,18.6,29.89,WSW,250,3.6,5.8,82,0.00,CLR,,0.01,WeatherDisplay:10.37,2013-02-24 02:37:00,
2013-02-23 20:38:00,23.3,18.6,29.89,WSW,258,4.4,6.9,82,0.00,CLR,,0.01,WeatherDisplay:10.37,2013-02-24 02:38:00,
2013-02-23 20:41:00,23.3,18.6,29.89,SSW,212,3.2,6.9,82,0.00,CLR,,0.01,WeatherDisplay:10.37,2013-02-24 02:41:00,
2013-02-23 20:42:00,23.4,18.7,29.89,WSW,246,3.4,6.9,82,0.00,CLR,,0.01,WeatherDisplay:10.37,2013-02-24 02:42:00,
2013-02-23 20:44:00,23.3,18.6,29.89,West,267,2.2,5.8,82,0.00,CLR,,0.01,WeatherDisplay:10.37,2013-02-24 02:44:00,
2013-02-23 20:46:00,23.2,18.5,29.89,NW,316,3.5,5.2,82,0.00,CLR,,0.01,WeatherDisplay:10.37,2013-02-24 02:46:00,
2013-02-23 20:47:00,23.2,18.5,29.89,West,267,5.0,6.9,82,0.00,CLR,,0.01,WeatherDisplay:10.37,2013-02-24 02:47:00,
2013-02-23 20:49:00,23.3,18.6,29.89,WSW,257,3.6,5.8,82,0.00,CLR,,0.01,WeatherDisplay:10.37,2013-02-24 02:49:00,
2013-02-23 20:51:00,23.2,18.5,29.89,West,265,3.6,5.8,82,0.00,CLR,,0.01,WeatherDisplay:10.37,2013-02-24 02:51:00,
2013-02-23 20:52:00,23.3,18.6,29.89,WSW,253,3.2,5.8,82,0.00,CLR,,0.01,WeatherDisplay:10.37,2013-02-24 02:52:00,
2013-02-23 20:54:00,23.3,18.6,29.89,SW,230,3.1,5.8,82,0.00,CLR,,0.01,WeatherDisplay:10.37,2013-02-24 02:54:00,
2013-02-23 20:57:00,23.3,18.6,29.89,West,272,4.6,5.8,82,0.00,CLR,,0.01,WeatherDisplay:10.37,2013-02-24 02:57:00,
2013-02-23 21:00:00,23.3,18.6,29.89,West,261,4.8,9.2,82,0.00,CLR,,0.01,WeatherDisplay:10.37,2013-02-24 03:00:00,
2013-02-23 21:02:00,23.3,18.6,29.89,West,280,2.1,4.6,82,0.00,CLR,,0.01,WeatherDisplay:10.37,2013-02-24 03:02:00,
2013-02-23 21:06:00,23.2,18.5,29.89,SW,232,5.0,6.9,82,0.00,CLR,,0.01,WeatherDisplay:10.37,2013-02-24 03:06:00,
2013-02-23 21:07:00,23.2,18.5,29.89,West,264,4.0,5.8,82,0.00,CLR,,0.01,WeatherDisplay:10.37,2013-02-24 03:07:00,
2013-02-23 21:11:00,23.2,18.5,29.89,WSW,239,3.9,5.8,82,0.00,CLR,,0.01,WeatherDisplay:10.37,2013-02-24 03:11:00,
2013-02-23 21:12:00,23.2,18.5,29.89,NW,305,2.0,4.6,82,0.00,CLR,,0.01,WeatherDisplay:10.37,2013-02-24 03:12:00,
2013-02-23 21:16:00,23.3,18.6,29.89,West,271,4.1,5.8,82,0.00,CLR,,0.01,WeatherDisplay:10.37,2013-02-24 03:16:00,
2013-02-23 21:17:00,23.2,18.5,29.89,SW,236,3.0,4.6,82,0.00,CLR,,0.01,WeatherDisplay:10.37,2013-02-24 03:17:00,
2013-02-23 21:21:00,23.1,18.4,29.89,West,260,5.4,6.9,82,0.00,CLR,,0.01,WeatherDisplay:10.37,2013-02-24 03:21:00,
2013-02-23 21:22:00,23.2,18.5,29.88,West,260,4.1,9.2,82,0.00,CLR,,0.01,WeatherDisplay:10.37,2013-02-24 03:22:00,
2013-02-23 21:26:00,23.1,18.7,29.88,West,264,4.5,8.1,83,0.00,CLR,,0.01,WeatherDisplay:10.37,2013-02-24 03:26:00,
2013-02-23 21:27:00,23.2,18.8,29.88,WSW,241,4.3,7.3,83,0.00,CLR,,0.01,WeatherDisplay:10.37,2013-02-24 03:27:00,
2013-02-23 21:31:00,23.1,18.7,29.89,WSW,251,4.7,8.1,83,0.00,CLR,,0.01,WeatherDisplay:10.37,2013-02-24 03:31:00,
2013-02-23 21:32:00,23.0,18.6,29.89,WNW,294,4.5,8.1,83,0.00,CLR,,0.01,WeatherDisplay:10.37,2013-02-24 03:32:00,
2013-02-23 21:36:00,23.1,18.7,29.89,WNW,288,6.2,10.4,83,0.00,CLR,,0.01,WeatherDisplay:10.37,2013-02-24 03:36:00,
2013-02-23 21:37:00,23.0,18.6,29.89,WSW,243,4.3,9.2,83,0.00,CLR,,0.01,WeatherDisplay:10.37,2013-02-24 03:37:00,
2013-02-23 21:38:00,22.9,18.5,29.89,SW,230,4.2,6.9,83,0.00,CLR,,0.01,WeatherDisplay:10.37,2013-02-24 03:38:00,
2013-02-23 21:41:00,22.9,18.5,29.89,West,268,4.4,8.1,83,0.00,CLR,,0.01,WeatherDisplay:10.37,2013-02-24 03:41:00,
2013-02-23 21:42:00,22.9,18.5,29.89,WSW,247,4.2,8.1,83,0.00,CLR,,0.01,WeatherDisplay:10.37,2013-02-24 03:42:00,
2013-02-23 21:43:00,23.0,18.6,29.89,West,261,4.7,8.1,83,0.00,CLR,,0.01,WeatherDisplay:10.37,2013-02-24 03:43:00,
2013-02-23 21:46:00,22.8,18.1,29.89,WSW,250,5.0,5.8,82,0.00,CLR,,0.01,WeatherDisplay:10.37,2013-02-24 03:46:00,
2013-02-23 21:47:00,22.9,18.2,29.89,West,265,5.8,8.1,82,0.00,CLR,,0.01,WeatherDisplay:10.37,2013-02-24 03:47:00,
2013-02-23 21:48:00,22.8,18.1,29.89,WSW,253,5.7,8.1,82,0.00,CLR,,0.01,WeatherDisplay:10.37,2013-02-24 03:48:00,
2013-02-23 21:51:00,22.7,18.0,29.89,WSW,246,5.3,5.8,82,0.00,CLR,,0.01,WeatherDisplay:10.37,2013-02-24 03:51:00,
2013-02-23 21:52:00,22.7,18.0,29.89,West,267,4.8,9.2,82,0.00,CLR,,0.01,WeatherDisplay:10.37,2013-02-24 03:52:00,
2013-02-23 21:53:00,22.7,18.0,29.89,West,265,4.4,6.9,82,0.00,CLR,,0.01,WeatherDisplay:10.37,2013-02-24 03:53:00,
2013-02-23 21:56:00,22.6,17.9,29.89,WNW,285,2.9,6.9,82,0.00,CLR,,0.01,WeatherDisplay:10.37,2013-02-24 03:56:00,
2013-02-23 21:57:00,22.6,17.9,29.89,SSW,198,4.2,4.6,82,0.00,CLR,,0.01,WeatherDisplay:10.37,2013-02-24 03:57:00,
2013-02-23 21:58:00,22.4,17.7,29.89,West,267,3.3,5.8,82,0.00,CLR,,0.01,WeatherDisplay:10.37,2013-02-24 03:58:00,
2013-02-23 22:02:00,22.4,17.7,29.89,WNW,291,3.8,5.8,82,0.00,CLR,,0.01,WeatherDisplay:10.37,2013-02-24 04:02:00,
2013-02-23 22:03:00,22.3,17.6,29.89,WNW,282,3.0,4.6,82,0.00,CLR,,0.01,WeatherDisplay:10.37,2013-02-24 04:03:00,
2013-02-23 22:07:00,22.0,17.3,29.89,WSW,239,3.1,3.5,82,0.00,CLR,,0.01,WeatherDisplay:10.37,2013-02-24 04:07:00,
2013-02-23 22:08:00,22.0,17.3,29.89,WNW,292,3.6,4.6,82,0.00,CLR,,0.01,WeatherDisplay:10.37,2013-02-24 04:08:00,
2013-02-23 22:12:00,21.9,17.2,29.89,West,277,2.7,4.6,82,0.00,CLR,,0.01,WeatherDisplay:10.37,2013-02-24 04:12:00,
2013-02-23 22:13:00,21.9,17.2,29.89,WNW,294,2.0,4.6,82,0.00,CLR,,0.01,WeatherDisplay:10.37,2013-02-24 04:13:00,
2013-02-23 22:17:00,21.6,17.0,29.89,West,272,1.8,2.3,82,0.00,CLR,,0.01,WeatherDisplay:10.37,2013-02-24 04:17:00,
2013-02-23 22:18:00,21.6,17.0,29.89,WNW,288,2.9,5.8,82,0.00,CLR,,0.01,WeatherDisplay:10.37,2013-02-24 04:18:00,
2013-02-23 22:22:00,21.2,16.8,29.89,West,281,2.5,3.5,83,0.00,CLR,,0.01,WeatherDisplay:10.37,2013-02-24 04:22:00,
2013-02-23 22:23:00,21.2,16.8,29.89,WSW,251,2.8,3.5,83,0.00,CLR,,0.01,WeatherDisplay:10.37,2013-02-24 04:23:00,
2013-02-23 22:27:00,21.0,16.6,29.89,West,260,4.1,5.0,83,0.00,CLR,,0.01,WeatherDisplay:10.37,2013-02-24 04:27:00,
2013-02-23 22:28:00,21.1,16.7,29.89,WSW,253,3.5,5.8,83,0.00,CLR,,0.01,WeatherDisplay:10.37,2013-02-24 04:28:00,
2013-02-23 22:32:00,20.9,16.5,29.89,West,268,2.9,4.6,83,0.00,CLR,,0.01,WeatherDisplay:10.37,2013-02-24 04:32:00,
2013-02-23 22:33:00,20.9,16.5,29.89,West,272,1.9,3.5,83,0.00,CLR,,0.01,WeatherDisplay:10.37,2013-02-24 04:33:00,
2013-02-23 22:37:00,20.6,16.3,29.89,WNW,287,1.5,3.5,83,0.00,CLR,,0.01,WeatherDisplay:10.37,2013-02-24 04:37:00,
2013-02-23 22:38:00,20.7,16.4,29.89,West,272,0.7,2.3,83,0.00,CLR,,0.01,WeatherDisplay:10.37,2013-02-24 04:38:00,
2013-02-23 22:42:00,20.6,16.3,29.89,WNW,282,1.3,2.3,83,0.00,CLR,,0.01,WeatherDisplay:10.37,2013-02-24 04:42:00,
2013-02-23 22:43:00,20.4,16.1,29.90,West,261,1.0,2.9,83,0.00,CLR,,0.01,WeatherDisplay:10.37,2013-02-24 04:43:00,
2013-02-23 22:44:00,20.3,16.0,29.89,WSW,258,1.9,3.5,83,0.00,CLR,,0.01,WeatherDisplay:10.37,2013-02-24 04:44:00,
2013-02-23 22:47:00,20.2,15.9,29.89,WNW,298,2.3,3.5,83,0.00,CLR,,0.01,WeatherDisplay:10.37,2013-02-24 04:47:00,
2013-02-23 22:48:00,20.1,15.8,29.89,WNW,292,2.8,3.5,83,0.00,CLR,,0.01,WeatherDisplay:10.37,2013-02-24 04:48:00,
2013-02-23 22:49:00,20.1,15.8,29.89,WNW,284,2.3,4.6,83,0.00,CLR,,0.01,WeatherDisplay:10.37,2013-02-24 04:49:00,
2013-02-23 22:52:00,19.9,15.6,29.89,West,268,2.1,2.3,83,0.00,CLR,,0.01,WeatherDisplay:10.37,2013-02-24 04:52:00,
2013-02-23 22:53:00,20.0,15.7,29.89,WSW,250,0.9,3.5,83,0.00,CLR,,0.01,WeatherDisplay:10.37,2013-02-24 04:53:00,
2013-02-23 22:54:00,19.9,15.6,29.89,WNW,289,1.8,2.3,83,0.00,CLR,,0.01,WeatherDisplay:10.37,2013-02-24 04:54:00,
2013-02-23 22:57:00,19.8,15.7,29.89,WNW,285,2.3,2.7,84,0.00,CLR,,0.01,WeatherDisplay:10.37,2013-02-24 04:57:00,
2013-02-23 22:58:00,19.8,15.7,29.89,WNW,302,2.2,2.3,84,0.00,CLR,,0.01,WeatherDisplay:10.37,2013-02-24 04:58:00,
2013-02-23 22:59:00,19.7,15.6,29.89,NW,315,2.0,2.3,84,0.00,CLR,,0.01,WeatherDisplay:10.37,2013-02-24 04:59:00,
2013-02-23 23:00:00,19.7,15.6,29.89,NNW,329,1.5,2.3,84,0.00,CLR,,0.01,WeatherDisplay:10.37,2013-02-24 05:00:00,
2013-02-23 23:05:00,19.5,15.5,29.90,WNW,287,0.9,2.3,84,0.00,CLR,,0.01,WeatherDisplay:10.37,2013-02-24 05:05:00,
2013-02-23 23:10:00,19.2,15.2,29.89,West,261,0.0,1.1,84,0.00,CLR,,0.01,WeatherDisplay:10.37,2013-02-24 05:10:00,
2013-02-23 23:11:00,19.3,15.3,29.90,WNW,295,0.0,0.7,84,0.00,CLR,,0.01,WeatherDisplay:10.37,2013-02-24 05:11:00,
2013-02-23 23:15:00,19.1,15.1,29.90,WNW,288,0.4,1.1,84,0.00,CLR,,0.01,WeatherDisplay:10.37,2013-02-24 05:15:00,
2013-02-23 23:16:00,18.9,14.9,29.90,West,260,0.6,1.1,84,0.00,CLR,,0.01,WeatherDisplay:10.37,2013-02-24 05:16:00,
2013-02-23 23:20:00,18.8,14.8,29.90,West,260,0.0,0.0,84,0.00,CLR,,0.01,WeatherDisplay:10.37,2013-02-24 05:20:00,
2013-02-23 23:21:00,18.8,14.8,29.90,West,260,0.0,0.0,84,0.00,CLR,,0.01,WeatherDisplay:10.37,2013-02-24 05:21:00,
2013-02-23 23:26:00,18.5,14.5,29.90,West,260,1.8,2.3,84,0.00,CLR,,0.01,WeatherDisplay:10.37,2013-02-24 05:26:00,
2013-02-23 23:27:00,18.5,14.5,29.90,West,268,1.2,2.3,84,0.00,CLR,,0.01,WeatherDisplay:10.37,2013-02-24 05:27:00,
2013-02-23 23:31:00,18.2,14.2,29.90,West,268,0.0,0.0,84,0.00,CLR,,0.01,WeatherDisplay:10.37,2013-02-24 05:31:00,
2013-02-23 23:32:00,18.3,14.3,29.90,West,268,0.0,0.0,84,0.00,CLR,,0.01,WeatherDisplay:10.37,2013-02-24 05:32:00,
2013-02-23 23:36:00,18.1,14.4,29.90,West,268,0.0,0.0,85,0.00,CLR,,0.01,WeatherDisplay:10.37,2013-02-24 05:36:00,
2013-02-23 23:37:00,18.1,14.4,29.91,West,268,0.0,0.0,85,0.00,CLR,,0.01,WeatherDisplay:10.37,2013-02-24 05:37:00,
2013-02-23 23:41:00,18.0,14.3,29.91,WSW,258,0.1,2.8,85,0.00,CLR,,0.01,WeatherDisplay:10.37,2013-02-24 05:41:00,
2013-02-23 23:42:00,17.9,14.2,29.91,WNW,285,1.3,2.3,85,0.00,CLR,,0.01,WeatherDisplay:10.37,2013-02-24 05:42:00,
2013-02-23 23:46:00,18.0,14.3,29.91,WSW,251,0.7,1.1,85,0.00,CLR,,0.01,WeatherDisplay:10.37,2013-02-24 05:46:00,
2013-02-23 23:47:00,17.9,14.2,29.91,West,263,1.1,2.5,85,0.00,CLR,,0.01,WeatherDisplay:10.37,2013-02-24 05:47:00,
2013-02-23 23:51:00,17.8,14.3,29.91,West,275,2.5,2.7,86,0.00,CLR,,0.01,WeatherDisplay:10.37,2013-02-24 05:51:00,
2013-02-23 23:52:00,17.8,14.3,29.91,NW,309,2.4,4.6,86,0.00,CLR,,0.01,WeatherDisplay:10.37,2013-02-24 05:52:00,
2013-02-23 23:56:00,17.8,14.3,29.91,WSW,251,0.6,2.3,86,0.00,CLR,,0.01,WeatherDisplay:10.37,2013-02-24 05:56:00,
2013-02-23 23:57:00,17.7,14.2,29.91,West,271,1.4,3.0,86,0.00,CLR,,0.01,WeatherDisplay:10.37,2013-02-24 05:57:00,